Time,TemperatureF,DewpointF,PressureIn,WindDirection,WindDirectionDegrees,WindSpeedMPH,WindSpeedGustMPH,Humidity,HourlyPrecipIn,Conditions,Clouds,dailyrainin,SoftwareType,DateUTC
2013-03-24 00:01:00,47.7,43.4,28.20,NNW,331,0.0,0.0,85,0.28,,---,0.28,VWS V14.01,2013-03-24 05:01:00,
2013-03-24 00:02:00,47.8,43.6,28.20,NNW,331,0.0,0.0,85,0.28,,---,0.28,VWS V14.01,2013-03-24 05:02:00,
2013-03-24 00:06:00,47.8,43.6,28.20,NNW,332,0.0,0.0,85,0.28,,---,0.28,VWS V14.01,2013-03-24 05:06:00,
2013-03-24 00:07:00,47.8,43.6,28.20,NNW,332,0.0,0.0,85,0.28,,---,0.28,VWS V14.01,2013-03-24 05:07:00,
2013-03-24 00:12:00,48.2,43.9,28.20,NNW,332,0.0,0.0,85,0.31,,---,0.31,VWS V14.01,2013-03-24 05:12:00,
2013-03-24 00:17:00,48.0,43.7,28.20,South,185,2.7,2.7,85,0.35,,---,0.35,VWS V14.01,2013-03-24 05:17:00,
2013-03-24 00:18:00,48.0,43.7,28.20,South,185,2.7,2.7,85,0.28,,---,0.35,VWS V14.01,2013-03-24 05:18:00,
2013-03-24 00:22:00,48.0,43.7,28.20,South,188,2.2,2.2,85,0.28,,---,0.35,VWS V14.01,2013-03-24 05:22:00,
2013-03-24 00:23:00,48.0,43.7,28.20,South,183,2.7,2.7,85,0.28,,---,0.35,VWS V14.01,2013-03-24 05:23:00,
2013-03-24 00:27:00,48.0,43.7,28.20,South,178,0.0,0.0,85,0.28,,---,0.35,VWS V14.01,2013-03-24 05:27:00,
2013-03-24 00:28:00,47.8,43.6,28.20,South,180,2.2,2.2,85,0.31,,---,0.39,VWS V14.01,2013-03-24 05:28:00,
2013-03-24 00:32:00,47.8,43.6,28.20,South,170,2.2,2.2,85,0.31,,---,0.39,VWS V14.01,2013-03-24 05:32:00,
2013-03-24 00:33:00,47.8,43.6,28.20,South,172,2.7,2.7,85,0.31,,---,0.39,VWS V14.01,2013-03-24 05:33:00,
2013-03-24 00:37:00,47.7,43.4,28.20,SSE,163,0.0,0.0,85,0.31,,---,0.39,VWS V14.01,2013-03-24 05:37:00,
2013-03-24 00:38:00,47.7,43.4,28.14,SSE,163,0.0,0.0,85,0.31,,---,0.39,VWS V14.01,2013-03-24 05:38:00,
2013-03-24 00:43:00,47.5,43.2,28.14,SSE,162,0.0,0.0,85,0.20,,---,0.39,VWS V14.01,2013-03-24 05:43:00,
2013-03-24 00:48:00,47.5,43.5,28.14,South,177,0.0,0.0,86,0.24,,---,0.47,VWS V14.01,2013-03-24 05:48:00,
2013-03-24 00:53:00,47.5,43.5,28.14,South,183,2.7,2.7,86,0.24,,---,0.47,VWS V14.01,2013-03-24 05:53:00,
2013-03-24 00:58:00,47.5,43.5,28.14,SSE,148,0.0,4.0,86,0.28,,---,0.55,VWS V14.01,2013-03-24 05:58:00,
2013-03-24 01:03:00,47.5,43.5,28.14,SSE,148,0.0,0.0,86,0.28,,---,0.55,VWS V14.01,2013-03-24 06:03:00,
2013-03-24 01:08:00,47.3,43.3,28.14,SSE,148,0.0,0.0,86,0.28,,---,0.59,VWS V14.01,2013-03-24 06:08:00,
2013-03-24 01:09:00,47.3,43.3,28.14,SSE,148,0.0,0.0,86,0.28,,---,0.59,VWS V14.01,2013-03-24 06:09:00,
2013-03-24 01:13:00,47.3,43.3,28.14,SSE,148,0.0,0.0,86,0.28,,---,0.59,VWS V14.01,2013-03-24 06:13:00,
2013-03-24 01:14:00,47.3,43.3,28.14,SSE,148,0.0,0.0,86,0.28,,---,0.59,VWS V14.01,2013-03-24 06:14:00,
2013-03-24 01:18:00,47.3,43.6,28.14,SSE,148,0.0,0.0,87,0.24,,---,0.59,VWS V14.01,2013-03-24 06:18:00,
2013-03-24 01:19:00,47.3,43.6,28.14,SSE,148,0.0,0.0,87,0.24,,---,0.59,VWS V14.01,2013-03-24 06:19:00,
2013-03-24 01:23:00,47.5,43.8,28.14,SSE,151,3.1,3.1,87,0.28,,---,0.63,VWS V14.01,2013-03-24 06:23:00,
2013-03-24 01:24:00,47.5,43.8,28.14,SSE,151,3.1,3.1,87,0.28,,---,0.63,VWS V14.01,2013-03-24 06:24:00,
2013-03-24 01:28:00,47.7,44.3,28.14,SSE,158,2.2,2.2,88,0.24,,---,0.63,VWS V14.01,2013-03-24 06:28:00,
2013-03-24 01:29:00,47.7,44.3,28.14,SSE,158,2.2,2.2,88,0.24,,---,0.63,VWS V14.01,2013-03-24 06:29:00,
2013-03-24 01:33:00,48.0,44.9,28.11,SE,145,3.1,3.1,89,0.24,,---,0.63,VWS V14.01,2013-03-24 06:33:00,
2013-03-24 01:34:00,48.0,44.9,28.11,SE,145,3.1,3.1,89,0.28,,---,0.67,VWS V14.01,2013-03-24 06:34:00,
2013-03-24 01:38:00,48.6,45.8,28.11,SSE,157,8.1,8.1,90,0.28,,---,0.67,VWS V14.01,2013-03-24 06:38:00,
2013-03-24 01:39:00,48.6,45.8,28.11,SSE,157,8.1,8.1,90,0.28,,---,0.67,VWS V14.01,2013-03-24 06:39:00,
2013-03-24 01:43:00,48.6,45.8,28.11,SSE,150,2.2,3.1,90,0.28,,---,0.67,VWS V14.01,2013-03-24 06:43:00,
2013-03-24 01:44:00,48.6,45.8,28.11,SSE,150,2.2,2.2,90,0.28,,---,0.67,VWS V14.01,2013-03-24 06:44:00,
2013-03-24 01:49:00,49.1,46.6,28.11,SSE,162,3.6,3.6,91,0.20,,---,0.67,VWS V14.01,2013-03-24 06:49:00,
2013-03-24 01:54:00,49.1,46.6,28.08,SE,142,4.9,4.9,91,0.20,,---,0.67,VWS V14.01,2013-03-24 06:54:00,
2013-03-24 01:59:00,50.0,48.1,28.08,South,170,3.6,3.6,93,0.16,,---,0.71,VWS V14.01,2013-03-24 06:59:00,
2013-03-24 02:04:00,50.0,48.1,28.08,SE,143,5.8,5.8,93,0.16,,---,0.71,VWS V14.01,2013-03-24 07:04:00,
2013-03-24 02:09:00,50.0,48.1,28.08,South,172,3.6,6.7,93,0.12,,---,0.71,VWS V14.01,2013-03-24 07:09:00,
2013-03-24 02:10:00,50.0,48.1,28.08,East,101,6.3,6.3,93,0.12,,---,0.71,VWS V14.01,2013-03-24 07:10:00,
2013-03-24 02:14:00,50.7,48.8,28.08,SE,125,3.1,3.1,93,0.16,,---,0.75,VWS V14.01,2013-03-24 07:14:00,
2013-03-24 02:15:00,50.7,48.8,28.08,East,92,2.7,3.1,93,0.16,,---,0.75,VWS V14.01,2013-03-24 07:15:00,
2013-03-24 02:19:00,50.7,48.8,28.08,SE,134,2.7,2.7,93,0.16,,---,0.75,VWS V14.01,2013-03-24 07:19:00,
2013-03-24 02:20:00,50.7,48.8,28.08,SE,134,2.7,2.7,93,0.16,,---,0.75,VWS V14.01,2013-03-24 07:20:00,
2013-03-24 02:24:00,50.7,48.8,28.08,SE,125,0.0,0.0,93,0.12,,---,0.75,VWS V14.01,2013-03-24 07:24:00,
2013-03-24 02:25:00,50.7,48.8,28.08,SE,131,0.0,0.0,93,0.12,,---,0.75,VWS V14.01,2013-03-24 07:25:00,
2013-03-24 02:30:00,50.7,48.8,28.02,ESE,110,0.0,0.0,93,0.12,,---,0.75,VWS V14.01,2013-03-24 07:30:00,
2013-03-24 02:35:00,50.9,49.0,28.02,SSE,164,0.0,0.0,93,0.08,,---,0.75,VWS V14.01,2013-03-24 07:35:00,
2013-03-24 02:40:00,51.1,49.1,28.02,East,86,2.2,2.2,93,0.08,,---,0.75,VWS V14.01,2013-03-24 07:40:00,
2013-03-24 02:41:00,51.1,49.1,28.02,East,86,2.2,2.2,93,0.12,,---,0.79,VWS V14.01,2013-03-24 07:41:00,
2013-03-24 02:45:00,51.1,49.1,28.02,NNW,337,0.0,0.0,93,0.12,,---,0.79,VWS V14.01,2013-03-24 07:45:00,
2013-03-24 02:46:00,51.3,49.6,28.02,NNW,337,0.0,0.0,94,0.12,,---,0.79,VWS V14.01,2013-03-24 07:46:00,
2013-03-24 02:50:00,51.3,49.6,28.02,NW,310,3.1,3.1,94,0.12,,---,0.79,VWS V14.01,2013-03-24 07:50:00,
2013-03-24 02:52:00,51.3,49.6,28.02,North,11,0.0,3.1,94,0.12,,---,0.79,VWS V14.01,2013-03-24 07:52:00,
2013-03-24 02:55:00,51.4,49.8,28.02,North,11,0.0,0.0,94,0.08,,---,0.79,VWS V14.01,2013-03-24 07:55:00,
2013-03-24 02:56:00,51.4,49.8,28.05,North,11,0.0,0.0,94,0.08,,---,0.79,VWS V14.01,2013-03-24 07:56:00,
2013-03-24 02:57:00,51.4,49.8,28.05,NNE,13,0.0,0.0,94,0.08,,---,0.79,VWS V14.01,2013-03-24 07:57:00,
2013-03-24 03:00:00,51.4,49.8,28.05,NNE,13,0.0,0.0,94,0.08,,---,0.79,VWS V14.01,2013-03-24 08:00:00,
2013-03-24 03:01:00,51.4,49.8,28.05,NNE,13,0.0,0.0,94,0.08,,---,0.79,VWS V14.01,2013-03-24 08:01:00,
2013-03-24 03:03:00,51.3,49.6,28.05,NNE,13,0.0,0.0,94,0.08,,---,0.79,VWS V14.01,2013-03-24 08:03:00,
2013-03-24 03:05:00,51.3,49.3,28.05,NNE,32,2.2,2.2,93,0.08,,---,0.79,VWS V14.01,2013-03-24 08:05:00,
2013-03-24 03:06:00,51.3,49.3,28.05,NNE,32,2.2,2.2,93,0.08,,---,0.79,VWS V14.01,2013-03-24 08:06:00,
2013-03-24 03:08:00,51.3,49.3,28.05,SSW,193,0.0,0.0,93,0.08,,---,0.79,VWS V14.01,2013-03-24 08:08:00,
2013-03-24 03:11:00,51.3,49.3,28.02,SSW,193,0.0,0.0,93,0.12,,---,0.83,VWS V14.01,2013-03-24 08:11:00,
2013-03-24 03:13:00,51.1,49.1,28.02,SSW,193,0.0,0.0,93,0.08,,---,0.83,VWS V14.01,2013-03-24 08:13:00,
2013-03-24 03:16:00,51.1,49.1,28.02,WNW,302,2.2,2.2,93,0.08,,---,0.83,VWS V14.01,2013-03-24 08:16:00,
2013-03-24 03:18:00,51.1,49.1,28.02,West,271,0.0,0.0,93,0.08,,---,0.83,VWS V14.01,2013-03-24 08:18:00,
2013-03-24 03:21:00,51.1,49.1,28.02,NNE,26,0.0,0.0,93,0.08,,---,0.83,VWS V14.01,2013-03-24 08:21:00,
2013-03-24 03:23:00,51.1,49.1,28.02,NNE,26,0.0,0.0,93,0.08,,---,0.83,VWS V14.01,2013-03-24 08:23:00,
2013-03-24 03:26:00,51.1,49.1,28.02,NNE,26,0.0,0.0,93,0.08,,---,0.83,VWS V14.01,2013-03-24 08:26:00,
2013-03-24 03:28:00,51.1,49.1,28.02,NNE,26,0.0,0.0,93,0.08,,---,0.83,VWS V14.01,2013-03-24 08:28:00,
2013-03-24 03:31:00,51.1,49.1,28.02,NNE,26,0.0,0.0,93,0.16,,---,0.91,VWS V14.01,2013-03-24 08:31:00,
2013-03-24 03:32:00,51.1,49.1,28.02,NNE,26,0.0,0.0,93,0.16,,---,0.91,VWS V14.01,2013-03-24 08:32:00,
2013-03-24 03:33:00,51.1,49.1,28.02,WNW,303,0.0,0.0,93,0.16,,---,0.91,VWS V14.01,2013-03-24 08:33:00,
2013-03-24 03:36:00,51.1,49.1,28.02,WNW,303,0.0,0.0,93,0.16,,---,0.91,VWS V14.01,2013-03-24 08:36:00,
2013-03-24 03:37:00,51.1,49.1,28.02,WNW,303,0.0,0.0,93,0.16,,---,0.91,VWS V14.01,2013-03-24 08:37:00,
2013-03-24 03:38:00,50.9,49.0,27.99,WNW,303,0.0,0.0,93,0.16,,---,0.91,VWS V14.01,2013-03-24 08:38:00,
2013-03-24 03:41:00,50.9,49.0,27.99,WNW,303,0.0,0.0,93,0.20,,---,0.98,VWS V14.01,2013-03-24 08:41:00,
2013-03-24 03:42:00,50.9,49.0,27.99,WNW,303,0.0,0.0,93,0.20,,---,0.98,VWS V14.01,2013-03-24 08:42:00,
2013-03-24 03:43:00,50.9,49.0,27.99,WNW,303,0.0,0.0,93,0.20,,---,0.98,VWS V14.01,2013-03-24 08:43:00,
2013-03-24 03:47:00,50.9,49.0,27.99,WNW,303,0.0,0.0,93,0.20,,---,0.98,VWS V14.01,2013-03-24 08:47:00,
2013-03-24 03:48:00,50.9,49.0,27.99,WNW,303,0.0,0.0,93,0.20,,---,0.98,VWS V14.01,2013-03-24 08:48:00,
2013-03-24 03:52:00,50.9,49.0,27.99,WNW,303,0.0,0.0,93,0.24,,---,1.02,VWS V14.01,2013-03-24 08:52:00,
2013-03-24 03:53:00,50.9,49.0,27.99,NNW,327,2.7,2.7,93,0.24,,---,1.02,VWS V14.01,2013-03-24 08:53:00,
2013-03-24 03:57:00,50.9,49.0,28.02,NNW,327,2.7,2.7,93,0.24,,---,1.02,VWS V14.01,2013-03-24 08:57:00,
2013-03-24 03:58:00,50.9,49.0,28.02,NNW,327,2.7,2.7,93,0.24,,---,1.02,VWS V14.01,2013-03-24 08:58:00,
2013-03-24 04:02:00,50.9,49.0,28.02,ENE,64,2.7,2.7,93,0.24,,---,1.02,VWS V14.01,2013-03-24 09:02:00,
2013-03-24 04:03:00,50.9,49.0,28.02,ENE,64,2.7,2.7,93,0.39,,---,1.18,VWS V14.01,2013-03-24 09:03:00,
2013-03-24 04:07:00,50.7,48.8,28.02,ENE,64,2.7,2.7,93,0.39,,---,1.18,VWS V14.01,2013-03-24 09:07:00,
2013-03-24 04:08:00,50.7,48.8,28.02,ENE,64,2.7,2.7,93,0.43,,---,1.22,VWS V14.01,2013-03-24 09:08:00,
2013-03-24 04:12:00,50.5,48.6,27.99,NNE,15,0.0,0.0,93,0.39,,---,1.22,VWS V14.01,2013-03-24 09:12:00,
2013-03-24 04:13:00,50.5,48.6,27.99,NNE,15,0.0,0.0,93,0.39,,---,1.22,VWS V14.01,2013-03-24 09:13:00,
2013-03-24 04:14:00,50.5,48.6,27.99,WNW,302,0.0,0.0,93,0.39,,---,1.22,VWS V14.01,2013-03-24 09:14:00,
2013-03-24 04:17:00,50.5,48.6,27.99,WNW,302,0.0,0.0,93,0.43,,---,1.26,VWS V14.01,2013-03-24 09:17:00,
2013-03-24 04:18:00,50.5,48.6,27.99,NW,314,0.0,0.0,93,0.43,,---,1.26,VWS V14.01,2013-03-24 09:18:00,
2013-03-24 04:19:00,50.5,48.6,27.99,WSW,251,0.0,0.0,93,0.43,,---,1.26,VWS V14.01,2013-03-24 09:19:00,
2013-03-24 04:22:00,50.5,48.6,27.99,WSW,251,0.0,0.0,93,0.43,,---,1.26,VWS V14.01,2013-03-24 09:22:00,
2013-03-24 04:23:00,50.5,48.6,27.99,WSW,251,0.0,0.0,93,0.43,,---,1.26,VWS V14.01,2013-03-24 09:23:00,
2013-03-24 04:24:00,50.5,48.6,27.99,WSW,251,0.0,0.0,93,0.43,,---,1.26,VWS V14.01,2013-03-24 09:24:00,
2013-03-24 04:27:00,50.5,48.6,28.02,WNW,290,3.1,3.1,93,0.51,,---,1.34,VWS V14.01,2013-03-24 09:27:00,
2013-03-24 04:28:00,50.5,48.6,28.02,WNW,290,3.1,3.1,93,0.55,,---,1.38,VWS V14.01,2013-03-24 09:28:00,
2013-03-24 04:29:00,50.4,48.4,28.02,WNW,290,3.1,3.1,93,0.55,,---,1.38,VWS V14.01,2013-03-24 09:29:00,
2013-03-24 04:33:00,50.2,48.2,28.02,WNW,290,3.1,3.1,93,0.47,,---,1.38,VWS V14.01,2013-03-24 09:33:00,
2013-03-24 04:34:00,50.2,48.2,28.02,NW,326,5.4,5.4,93,0.47,,---,1.38,VWS V14.01,2013-03-24 09:34:00,
2013-03-24 04:38:00,50.2,48.2,28.02,NNW,327,0.0,0.0,93,0.55,,---,1.46,VWS V14.01,2013-03-24 09:38:00,
2013-03-24 04:39:00,50.0,47.8,28.02,NNW,327,0.0,0.0,92,0.55,,---,1.46,VWS V14.01,2013-03-24 09:39:00,
2013-03-24 04:43:00,50.0,47.8,28.02,WSW,248,0.0,0.0,92,0.47,,---,1.46,VWS V14.01,2013-03-24 09:43:00,
2013-03-24 04:44:00,50.0,47.8,28.02,WSW,248,0.0,0.0,92,0.47,,---,1.46,VWS V14.01,2013-03-24 09:44:00,
2013-03-24 04:48:00,50.0,48.1,28.02,WSW,248,0.0,0.0,93,0.51,,---,1.50,VWS V14.01,2013-03-24 09:48:00,
2013-03-24 04:49:00,49.8,47.9,28.02,WSW,248,0.0,0.0,93,0.51,,---,1.50,VWS V14.01,2013-03-24 09:49:00,
2013-03-24 04:50:00,49.8,47.9,28.02,WSW,248,0.0,0.0,93,0.47,,---,1.50,VWS V14.01,2013-03-24 09:50:00,
2013-03-24 04:53:00,49.8,47.9,28.02,WSW,248,0.0,0.0,93,0.47,,---,1.50,VWS V14.01,2013-03-24 09:53:00,
2013-03-24 04:54:00,49.8,47.9,28.02,WSW,248,0.0,0.0,93,0.47,,---,1.50,VWS V14.01,2013-03-24 09:54:00,
2013-03-24 04:55:00,49.8,47.9,28.02,WSW,248,0.0,0.0,93,0.47,,---,1.50,VWS V14.01,2013-03-24 09:55:00,
2013-03-24 04:58:00,49.8,47.9,28.05,WSW,248,0.0,0.0,93,0.51,,---,1.54,VWS V14.01,2013-03-24 09:58:00,
2013-03-24 04:59:00,49.8,47.9,28.05,WSW,248,0.0,0.0,93,0.51,,---,1.54,VWS V14.01,2013-03-24 09:59:00,
2013-03-24 05:00:00,49.8,47.9,28.05,WSW,248,0.0,0.0,93,0.51,,---,1.54,VWS V14.01,2013-03-24 10:00:00,
2013-03-24 05:03:00,49.8,47.9,28.05,WSW,248,0.0,0.0,93,0.51,,---,1.54,VWS V14.01,2013-03-24 10:03:00,
2013-03-24 05:04:00,49.8,47.9,28.05,WSW,248,0.0,0.0,93,0.35,,---,1.54,VWS V14.01,2013-03-24 10:04:00,
2013-03-24 05:05:00,49.8,47.9,28.05,WSW,248,0.0,0.0,93,0.35,,---,1.54,VWS V14.01,2013-03-24 10:05:00,
2013-03-24 05:08:00,49.8,47.9,28.05,WSW,248,0.0,0.0,93,0.39,,---,1.57,VWS V14.01,2013-03-24 10:08:00,
2013-03-24 05:09:00,49.8,47.9,28.02,WSW,248,0.0,0.0,93,0.35,,---,1.57,VWS V14.01,2013-03-24 10:09:00,
2013-03-24 05:10:00,49.8,47.9,28.02,WSW,248,0.0,0.0,93,0.35,,---,1.57,VWS V14.01,2013-03-24 10:10:00,
2013-03-24 05:13:00,49.6,47.7,28.02,WSW,248,0.0,0.0,93,0.35,,---,1.57,VWS V14.01,2013-03-24 10:13:00,
2013-03-24 05:14:00,49.6,47.7,28.02,WSW,248,0.0,0.0,93,0.35,,---,1.57,VWS V14.01,2013-03-24 10:14:00,
2013-03-24 05:15:00,49.6,47.7,28.02,WSW,248,0.0,0.0,93,0.35,,---,1.57,VWS V14.01,2013-03-24 10:15:00,
2013-03-24 05:18:00,49.6,47.7,28.02,WSW,248,0.0,0.0,93,0.31,,---,1.57,VWS V14.01,2013-03-24 10:18:00,
2013-03-24 05:19:00,49.6,47.7,28.02,WSW,248,0.0,0.0,93,0.31,,---,1.57,VWS V14.01,2013-03-24 10:19:00,
2013-03-24 05:20:00,49.6,47.7,28.02,WSW,248,0.0,0.0,93,0.31,,---,1.57,VWS V14.01,2013-03-24 10:20:00,
2013-03-24 05:23:00,49.5,47.5,28.02,WSW,248,0.0,0.0,93,0.31,,---,1.57,VWS V14.01,2013-03-24 10:23:00,
2013-03-24 05:24:00,49.5,47.5,28.02,WSW,248,0.0,0.0,93,0.31,,---,1.57,VWS V14.01,2013-03-24 10:24:00,
2013-03-24 05:25:00,49.5,47.5,27.99,WSW,248,0.0,0.0,93,0.24,,---,1.57,VWS V14.01,2013-03-24 10:25:00,
2013-03-24 05:28:00,49.5,47.5,27.99,North,357,0.0,0.0,93,0.20,,---,1.57,VWS V14.01,2013-03-24 10:28:00,
2013-03-24 05:29:00,49.5,47.5,27.99,North,357,0.0,0.0,93,0.20,,---,1.57,VWS V14.01,2013-03-24 10:29:00,
2013-03-24 05:30:00,49.3,47.3,27.99,North,357,0.0,0.0,93,0.20,,---,1.57,VWS V14.01,2013-03-24 10:30:00,
2013-03-24 05:33:00,49.3,47.3,27.99,North,357,0.0,0.0,93,0.20,,---,1.57,VWS V14.01,2013-03-24 10:33:00,
2013-03-24 05:34:00,49.3,47.3,27.99,North,357,0.0,0.0,93,0.20,,---,1.57,VWS V14.01,2013-03-24 10:34:00,
2013-03-24 05:35:00,49.3,47.3,27.99,North,357,0.0,0.0,93,0.20,,---,1.57,VWS V14.01,2013-03-24 10:35:00,
2013-03-24 05:39:00,49.3,47.3,27.99,North,357,0.0,0.0,93,0.12,,---,1.57,VWS V14.01,2013-03-24 10:39:00,
2013-03-24 05:40:00,49.3,47.3,27.99,North,357,0.0,0.0,93,0.12,,---,1.57,VWS V14.01,2013-03-24 10:40:00,
2013-03-24 05:44:00,49.3,47.3,27.99,North,357,0.0,0.0,93,0.12,,---,1.57,VWS V14.01,2013-03-24 10:44:00,
2013-03-24 05:45:00,49.3,47.3,27.99,North,357,0.0,0.0,93,0.12,,---,1.57,VWS V14.01,2013-03-24 10:45:00,
2013-03-24 05:46:00,49.3,47.3,27.99,North,357,0.0,0.0,93,0.12,,---,1.57,VWS V14.01,2013-03-24 10:46:00,
2013-03-24 05:49:00,49.1,47.2,27.99,North,357,0.0,0.0,93,0.08,,---,1.57,VWS V14.01,2013-03-24 10:49:00,
2013-03-24 05:50:00,49.1,47.2,27.99,North,357,0.0,0.0,93,0.08,,---,1.57,VWS V14.01,2013-03-24 10:50:00,
2013-03-24 05:51:00,49.1,47.2,27.99,North,357,0.0,0.0,93,0.08,,---,1.57,VWS V14.01,2013-03-24 10:51:00,
2013-03-24 05:54:00,49.1,47.2,27.99,North,357,0.0,0.0,93,0.08,,---,1.57,VWS V14.01,2013-03-24 10:54:00,
2013-03-24 05:55:00,49.1,47.2,27.99,North,357,0.0,0.0,93,0.08,,---,1.57,VWS V14.01,2013-03-24 10:55:00,
2013-03-24 05:57:00,49.1,47.2,27.99,North,357,0.0,0.0,93,0.08,,---,1.57,VWS V14.01,2013-03-24 10:57:00,
2013-03-24 05:59:00,49.1,47.2,27.99,North,357,0.0,0.0,93,0.04,,---,1.57,VWS V14.01,2013-03-24 10:59:00,
2013-03-24 06:00:00,49.1,47.2,27.99,North,357,0.0,0.0,93,0.04,,---,1.57,VWS V14.01,2013-03-24 11:00:00,
2013-03-24 06:02:00,49.1,47.2,27.99,North,357,0.0,0.0,93,0.04,,---,1.57,VWS V14.01,2013-03-24 11:02:00,
2013-03-24 06:04:00,49.1,47.2,27.99,North,357,0.0,0.0,93,0.04,,---,1.57,VWS V14.01,2013-03-24 11:04:00,
2013-03-24 06:05:00,49.1,47.2,27.99,North,357,0.0,0.0,93,0.04,,---,1.57,VWS V14.01,2013-03-24 11:05:00,
2013-03-24 06:07:00,49.1,47.2,27.99,North,357,0.0,0.0,93,0.08,,---,1.61,VWS V14.01,2013-03-24 11:07:00,
2013-03-24 06:10:00,49.1,47.2,27.99,North,357,0.0,0.0,93,0.04,,---,1.61,VWS V14.01,2013-03-24 11:10:00,
2013-03-24 06:11:00,49.1,47.2,27.99,North,357,0.0,0.0,93,0.04,,---,1.61,VWS V14.01,2013-03-24 11:11:00,
2013-03-24 06:12:00,49.1,47.2,27.99,North,357,0.0,0.0,93,0.04,,---,1.61,VWS V14.01,2013-03-24 11:12:00,
2013-03-24 06:15:00,49.1,47.2,27.99,North,357,0.0,0.0,93,0.04,,---,1.61,VWS V14.01,2013-03-24 11:15:00,
2013-03-24 06:16:00,49.1,47.2,27.99,North,357,0.0,0.0,93,0.04,,---,1.61,VWS V14.01,2013-03-24 11:16:00,
2013-03-24 06:17:00,49.1,47.2,27.99,North,357,0.0,0.0,93,0.04,,---,1.61,VWS V14.01,2013-03-24 11:17:00,
2013-03-24 06:20:00,49.1,47.2,27.99,North,357,0.0,0.0,93,0.04,,---,1.61,VWS V14.01,2013-03-24 11:20:00,
2013-03-24 06:21:00,49.1,47.2,27.99,North,357,0.0,0.0,93,0.04,,---,1.61,VWS V14.01,2013-03-24 11:21:00,
2013-03-24 06:22:00,49.1,47.2,27.99,North,357,0.0,0.0,93,0.04,,---,1.61,VWS V14.01,2013-03-24 11:22:00,
2013-03-24 06:25:00,49.1,47.2,27.99,North,357,0.0,0.0,93,0.04,,---,1.61,VWS V14.01,2013-03-24 11:25:00,
2013-03-24 06:26:00,49.1,47.2,27.99,North,357,0.0,0.0,93,0.04,,---,1.61,VWS V14.01,2013-03-24 11:26:00,
2013-03-24 06:27:00,49.1,47.2,27.99,North,357,0.0,0.0,93,0.04,,---,1.61,VWS V14.01,2013-03-24 11:27:00,
2013-03-24 06:30:00,49.3,47.3,27.99,North,357,0.0,0.0,93,0.04,,---,1.61,VWS V14.01,2013-03-24 11:30:00,
2013-03-24 06:31:00,49.3,47.3,27.99,North,357,0.0,0.0,93,0.04,,---,1.61,VWS V14.01,2013-03-24 11:31:00,
2013-03-24 06:32:00,49.3,47.3,27.99,North,357,0.0,0.0,93,0.04,,---,1.61,VWS V14.01,2013-03-24 11:32:00,
2013-03-24 06:35:00,49.3,47.3,27.99,North,357,0.0,0.0,93,0.04,,---,1.61,VWS V14.01,2013-03-24 11:35:00,
2013-03-24 06:36:00,49.3,47.3,27.99,North,357,0.0,0.0,93,0.04,,---,1.61,VWS V14.01,2013-03-24 11:36:00,
2013-03-24 06:37:00,49.3,47.3,27.99,North,357,0.0,0.0,93,0.04,,---,1.61,VWS V14.01,2013-03-24 11:37:00,
2013-03-24 06:40:00,49.3,47.3,27.99,North,357,0.0,0.0,93,0.04,,---,1.61,VWS V14.01,2013-03-24 11:40:00,
2013-03-24 06:41:00,49.3,47.3,27.99,North,357,0.0,0.0,93,0.04,,---,1.61,VWS V14.01,2013-03-24 11:41:00,
2013-03-24 06:42:00,49.3,47.3,27.99,North,357,0.0,0.0,93,0.04,,---,1.61,VWS V14.01,2013-03-24 11:42:00,
2013-03-24 06:45:00,49.3,47.3,27.99,North,357,0.0,0.0,93,0.04,,---,1.61,VWS V14.01,2013-03-24 11:45:00,
2013-03-24 06:46:00,49.3,47.3,27.99,North,357,0.0,0.0,93,0.04,,---,1.61,VWS V14.01,2013-03-24 11:46:00,
2013-03-24 06:47:00,49.3,47.3,27.99,North,357,0.0,0.0,93,0.04,,---,1.61,VWS V14.01,2013-03-24 11:47:00,
2013-03-24 06:50:00,49.3,47.3,27.99,North,357,0.0,0.0,93,0.04,,---,1.61,VWS V14.01,2013-03-24 11:50:00,
2013-03-24 06:51:00,49.3,47.3,27.99,North,357,0.0,0.0,93,0.04,,---,1.61,VWS V14.01,2013-03-24 11:51:00,
2013-03-24 06:52:00,49.3,47.3,27.99,North,357,0.0,0.0,93,0.04,,---,1.61,VWS V14.01,2013-03-24 11:52:00,
2013-03-24 06:55:00,49.3,47.3,27.99,North,357,0.0,0.0,93,0.04,,---,1.61,VWS V14.01,2013-03-24 11:55:00,
2013-03-24 06:56:00,49.3,47.6,27.99,North,357,0.0,0.0,94,0.04,,---,1.61,VWS V14.01,2013-03-24 11:56:00,
2013-03-24 06:57:00,49.3,47.6,27.99,North,357,0.0,0.0,94,0.04,,---,1.61,VWS V14.01,2013-03-24 11:57:00,
2013-03-24 07:00:00,49.3,47.6,27.99,North,357,0.0,0.0,94,0.04,,---,1.61,VWS V14.01,2013-03-24 12:00:00,
2013-03-24 07:01:00,49.3,47.6,27.99,North,357,0.0,0.0,94,0.04,,---,1.61,VWS V14.01,2013-03-24 12:01:00,
2013-03-24 07:02:00,49.3,47.6,27.99,North,357,0.0,0.0,94,0.04,,---,1.61,VWS V14.01,2013-03-24 12:02:00,
2013-03-24 07:05:00,49.3,47.6,27.99,North,357,0.0,0.0,94,0.00,,---,1.61,VWS V14.01,2013-03-24 12:05:00,
2013-03-24 07:07:00,49.5,47.8,27.99,North,357,0.0,0.0,94,0.00,,---,1.61,VWS V14.01,2013-03-24 12:07:00,
2013-03-24 07:11:00,49.5,47.8,27.99,North,357,0.0,0.0,94,0.00,,---,1.61,VWS V14.01,2013-03-24 12:11:00,
2013-03-24 07:12:00,49.5,47.8,27.99,North,357,0.0,0.0,94,0.00,,---,1.61,VWS V14.01,2013-03-24 12:12:00,
2013-03-24 07:13:00,49.5,47.8,27.99,North,357,0.0,0.0,94,0.00,,---,1.61,VWS V14.01,2013-03-24 12:13:00,
2013-03-24 07:16:00,49.5,47.8,27.99,North,357,0.0,0.0,94,0.00,,---,1.61,VWS V14.01,2013-03-24 12:16:00,
2013-03-24 07:17:00,49.5,47.8,27.99,North,357,0.0,0.0,94,0.00,,---,1.61,VWS V14.01,2013-03-24 12:17:00,
2013-03-24 07:18:00,49.5,47.8,27.99,North,357,0.0,0.0,94,0.00,,---,1.61,VWS V14.01,2013-03-24 12:18:00,
2013-03-24 07:21:00,49.5,47.8,27.99,North,357,0.0,0.0,94,0.00,,---,1.61,VWS V14.01,2013-03-24 12:21:00,
2013-03-24 07:23:00,49.5,47.8,27.99,North,357,0.0,0.0,94,0.00,,---,1.61,VWS V14.01,2013-03-24 12:23:00,
2013-03-24 07:26:00,49.6,48.0,27.99,North,357,0.0,0.0,94,0.00,,---,1.61,VWS V14.01,2013-03-24 12:26:00,
2013-03-24 07:28:00,49.6,48.0,27.99,North,357,0.0,0.0,94,0.00,,---,1.61,VWS V14.01,2013-03-24 12:28:00,
2013-03-24 07:31:00,49.6,48.0,27.99,North,357,0.0,0.0,94,0.00,,---,1.61,VWS V14.01,2013-03-24 12:31:00,
2013-03-24 07:33:00,49.6,48.0,27.99,North,357,0.0,0.0,94,0.00,,---,1.61,VWS V14.01,2013-03-24 12:33:00,
2013-03-24 07:36:00,49.8,48.2,27.99,North,357,0.0,0.0,94,0.00,,---,1.61,VWS V14.01,2013-03-24 12:36:00,
2013-03-24 07:38:00,49.8,48.2,27.99,North,357,0.0,0.0,94,0.00,,---,1.61,VWS V14.01,2013-03-24 12:38:00,
2013-03-24 07:41:00,49.8,48.2,27.99,North,357,0.0,0.0,94,0.00,,---,1.61,VWS V14.01,2013-03-24 12:41:00,
2013-03-24 07:43:00,50.0,48.1,27.99,North,357,0.0,0.0,93,0.00,,---,1.61,VWS V14.01,2013-03-24 12:43:00,
2013-03-24 07:47:00,50.0,48.3,27.99,North,357,0.0,0.0,94,0.00,,---,1.61,VWS V14.01,2013-03-24 12:47:00,
2013-03-24 07:48:00,50.2,48.5,27.99,North,357,0.0,0.0,94,0.00,,---,1.61,VWS V14.01,2013-03-24 12:48:00,
2013-03-24 07:49:00,50.2,48.5,27.99,North,357,0.0,0.0,94,0.00,,---,1.61,VWS V14.01,2013-03-24 12:49:00,
2013-03-24 07:52:00,50.2,48.5,27.99,North,357,0.0,0.0,94,0.00,,---,1.61,VWS V14.01,2013-03-24 12:52:00,
2013-03-24 07:53:00,50.2,48.5,27.99,North,357,0.0,0.0,94,0.04,,---,1.65,VWS V14.01,2013-03-24 12:53:00,
2013-03-24 07:54:00,50.2,48.5,27.99,North,357,0.0,0.0,94,0.04,,---,1.65,VWS V14.01,2013-03-24 12:54:00,
2013-03-24 07:57:00,50.2,48.5,27.99,North,357,0.0,0.0,94,0.04,,---,1.65,VWS V14.01,2013-03-24 12:57:00,
2013-03-24 07:59:00,50.4,48.7,27.99,North,357,0.0,0.0,94,0.04,,---,1.65,VWS V14.01,2013-03-24 12:59:00,
2013-03-24 08:03:00,50.4,48.7,27.99,North,357,0.0,0.0,94,0.04,,---,1.65,VWS V14.01,2013-03-24 13:03:00,
2013-03-24 08:04:00,50.4,48.7,27.99,North,357,0.0,0.0,94,0.04,,---,1.65,VWS V14.01,2013-03-24 13:04:00,
2013-03-24 08:08:00,50.5,48.9,27.99,North,357,0.0,0.0,94,0.04,,---,1.65,VWS V14.01,2013-03-24 13:08:00,
2013-03-24 08:09:00,50.5,48.9,27.99,North,357,3.6,3.6,94,0.04,,---,1.65,VWS V14.01,2013-03-24 13:09:00,
2013-03-24 08:13:00,50.9,49.2,27.99,North,357,3.1,3.1,94,0.04,,---,1.65,VWS V14.01,2013-03-24 13:13:00,
2013-03-24 08:14:00,50.9,49.2,27.99,North,357,3.1,3.1,94,0.04,,---,1.65,VWS V14.01,2013-03-24 13:14:00,
2013-03-24 08:18:00,51.1,49.4,27.99,North,357,3.1,3.1,94,0.04,,---,1.65,VWS V14.01,2013-03-24 13:18:00,
2013-03-24 08:19:00,51.1,49.4,27.99,North,357,3.1,3.1,94,0.04,,---,1.65,VWS V14.01,2013-03-24 13:19:00,
2013-03-24 08:23:00,51.1,49.4,27.99,North,357,3.1,3.1,94,0.04,,---,1.65,VWS V14.01,2013-03-24 13:23:00,
2013-03-24 08:24:00,51.4,49.8,27.96,North,357,3.1,3.1,94,0.04,,---,1.65,VWS V14.01,2013-03-24 13:24:00,
2013-03-24 08:28:00,51.4,49.8,27.96,South,176,3.6,3.6,94,0.04,,---,1.65,VWS V14.01,2013-03-24 13:28:00,
2013-03-24 08:29:00,51.4,49.8,27.96,South,176,2.2,3.6,94,0.04,,---,1.65,VWS V14.01,2013-03-24 13:29:00,
2013-03-24 08:33:00,51.6,50.0,27.96,SSE,164,2.2,2.2,94,0.04,,---,1.65,VWS V14.01,2013-03-24 13:33:00,
2013-03-24 08:34:00,51.6,50.0,27.96,SSE,164,2.2,2.2,94,0.04,,---,1.65,VWS V14.01,2013-03-24 13:34:00,
2013-03-24 08:38:00,51.6,50.0,27.96,South,171,2.7,2.7,94,0.04,,---,1.65,VWS V14.01,2013-03-24 13:38:00,
2013-03-24 08:39:00,51.6,50.0,27.96,SSE,156,6.3,6.3,94,0.04,,---,1.65,VWS V14.01,2013-03-24 13:39:00,
2013-03-24 08:43:00,51.8,50.1,27.99,South,172,3.1,3.6,94,0.04,,---,1.65,VWS V14.01,2013-03-24 13:43:00,
2013-03-24 08:44:00,51.8,50.1,27.99,South,172,3.1,3.1,94,0.04,,---,1.65,VWS V14.01,2013-03-24 13:44:00,
2013-03-24 08:45:00,51.8,50.1,27.99,South,172,3.1,3.1,94,0.04,,---,1.65,VWS V14.01,2013-03-24 13:45:00,
2013-03-24 08:49:00,51.8,50.1,27.99,South,172,3.1,3.1,94,0.04,,---,1.65,VWS V14.01,2013-03-24 13:49:00,
2013-03-24 08:50:00,51.8,50.1,27.99,South,172,3.1,3.1,94,0.04,,---,1.65,VWS V14.01,2013-03-24 13:50:00,
2013-03-24 08:54:00,52.2,50.5,27.99,SSE,160,4.0,5.8,94,0.00,,---,1.65,VWS V14.01,2013-03-24 13:54:00,
2013-03-24 08:55:00,52.2,50.5,27.99,SSE,160,4.0,4.0,94,0.00,,---,1.65,VWS V14.01,2013-03-24 13:55:00,
2013-03-24 08:59:00,52.5,50.8,27.99,SSE,154,5.4,5.4,94,0.00,,---,1.65,VWS V14.01,2013-03-24 13:59:00,
2013-03-24 09:00:00,52.5,50.8,27.99,SSE,154,5.4,5.4,94,0.00,,---,1.65,VWS V14.01,2013-03-24 14:00:00,
2013-03-24 09:04:00,52.5,50.8,27.99,SE,144,5.8,5.8,94,0.00,,---,1.65,VWS V14.01,2013-03-24 14:04:00,
2013-03-24 09:05:00,52.5,50.8,27.99,SE,144,5.8,5.8,94,0.00,,---,1.65,VWS V14.01,2013-03-24 14:05:00,
2013-03-24 09:09:00,53.4,51.7,27.99,South,178,5.4,5.4,94,0.00,,---,1.65,VWS V14.01,2013-03-24 14:09:00,
2013-03-24 09:10:00,53.4,51.7,27.99,South,178,5.4,5.4,94,0.00,,---,1.65,VWS V14.01,2013-03-24 14:10:00,
2013-03-24 09:14:00,53.4,51.7,27.99,South,179,6.3,6.3,94,0.00,,---,1.65,VWS V14.01,2013-03-24 14:14:00,
2013-03-24 09:15:00,53.4,51.7,27.99,South,179,6.3,6.3,94,0.00,,---,1.65,VWS V14.01,2013-03-24 14:15:00,
2013-03-24 09:19:00,54.7,53.0,27.99,South,180,4.0,4.0,94,0.00,,---,1.65,VWS V14.01,2013-03-24 14:19:00,
2013-03-24 09:20:00,54.7,53.0,27.99,South,180,4.0,4.0,94,0.00,,---,1.65,VWS V14.01,2013-03-24 14:20:00,
2013-03-24 09:21:00,54.7,53.0,27.99,SSE,159,6.3,6.3,94,0.00,,---,1.65,VWS V14.01,2013-03-24 14:21:00,
2013-03-24 09:24:00,54.7,53.0,27.99,SSE,159,6.3,6.3,94,0.00,,---,1.65,VWS V14.01,2013-03-24 14:24:00,
2013-03-24 09:25:00,54.7,53.0,27.99,SSE,159,6.3,6.3,94,0.00,,---,1.65,VWS V14.01,2013-03-24 14:25:00,
2013-03-24 09:27:00,54.7,53.0,27.99,SSE,159,6.3,6.3,94,0.00,,---,1.65,VWS V14.01,2013-03-24 14:27:00,
2013-03-24 09:29:00,54.7,53.0,27.99,SSE,156,5.8,6.3,94,0.00,,---,1.65,VWS V14.01,2013-03-24 14:29:00,
2013-03-24 09:30:00,54.7,53.0,27.99,SSE,156,5.8,5.8,94,0.00,,---,1.65,VWS V14.01,2013-03-24 14:30:00,
2013-03-24 09:31:00,54.7,53.0,27.99,SSE,156,5.8,5.8,94,0.00,,---,1.65,VWS V14.01,2013-03-24 14:31:00,
2013-03-24 09:32:00,54.7,53.0,27.99,SSE,156,5.8,5.8,94,0.00,,---,1.65,VWS V14.01,2013-03-24 14:32:00,
2013-03-24 09:34:00,54.3,52.0,27.99,SSE,156,5.8,5.8,92,0.00,,---,1.65,VWS V14.01,2013-03-24 14:34:00,
2013-03-24 09:35:00,54.3,52.0,27.99,SSE,156,5.8,5.8,92,0.00,,---,1.65,VWS V14.01,2013-03-24 14:35:00,
2013-03-24 09:36:00,54.3,52.0,27.99,South,173,5.8,5.8,92,0.00,,---,1.65,VWS V14.01,2013-03-24 14:36:00,
2013-03-24 09:37:00,54.3,52.0,27.99,South,173,5.8,5.8,92,0.00,,---,1.65,VWS V14.01,2013-03-24 14:37:00,
2013-03-24 09:39:00,54.7,52.4,27.99,South,173,5.8,5.8,92,0.00,,---,1.65,VWS V14.01,2013-03-24 14:39:00,
2013-03-24 09:40:00,54.7,52.4,27.99,South,173,5.8,5.8,92,0.00,,---,1.65,VWS V14.01,2013-03-24 14:40:00,
2013-03-24 09:41:00,54.7,52.4,27.99,South,173,5.8,5.8,92,0.00,,---,1.65,VWS V14.01,2013-03-24 14:41:00,
2013-03-24 09:42:00,54.7,52.1,27.99,South,173,5.8,5.8,91,0.00,,---,1.65,VWS V14.01,2013-03-24 14:42:00,
2013-03-24 09:45:00,54.7,52.1,27.99,SSE,154,5.8,5.8,91,0.00,,---,1.65,VWS V14.01,2013-03-24 14:45:00,
2013-03-24 09:47:00,54.7,52.1,27.99,SE,141,5.8,6.3,91,0.00,,---,1.65,VWS V14.01,2013-03-24 14:47:00,
2013-03-24 09:48:00,54.7,52.1,27.99,SE,141,5.8,5.8,91,0.00,,---,1.65,VWS V14.01,2013-03-24 14:48:00,
2013-03-24 09:50:00,54.7,52.1,27.99,South,178,11.0,11.0,91,0.00,,---,1.65,VWS V14.01,2013-03-24 14:50:00,
2013-03-24 09:52:00,54.7,52.1,28.02,South,178,11.0,11.0,91,0.00,,---,1.65,VWS V14.01,2013-03-24 14:52:00,
2013-03-24 09:53:00,54.7,52.1,28.02,South,178,11.0,11.0,91,0.00,,---,1.65,VWS V14.01,2013-03-24 14:53:00,
2013-03-24 09:55:00,54.7,52.1,28.02,South,178,11.0,11.0,91,0.00,,---,1.65,VWS V14.01,2013-03-24 14:55:00,
2013-03-24 09:57:00,54.7,52.1,28.02,South,178,11.0,11.0,91,0.00,,---,1.65,VWS V14.01,2013-03-24 14:57:00,
2013-03-24 09:58:00,54.7,52.1,28.02,South,178,11.0,11.0,91,0.00,,---,1.65,VWS V14.01,2013-03-24 14:58:00,
2013-03-24 10:00:00,57.2,50.4,28.02,SSE,152,5.4,5.4,78,0.00,,---,1.65,VWS V14.01,2013-03-24 15:00:00,
2013-03-24 10:01:00,57.2,50.4,28.02,SSE,152,5.4,5.4,78,0.00,,---,1.65,VWS V14.01,2013-03-24 15:01:00,
2013-03-24 10:02:00,57.2,50.4,28.02,SSE,152,5.4,5.4,78,0.00,,---,1.65,VWS V14.01,2013-03-24 15:02:00,
2013-03-24 10:03:00,57.2,50.4,28.02,SSE,152,5.4,5.4,78,0.00,,---,1.65,VWS V14.01,2013-03-24 15:03:00,
2013-03-24 10:05:00,57.2,50.4,27.99,SSE,152,5.4,5.4,78,0.00,,---,1.65,VWS V14.01,2013-03-24 15:05:00,
2013-03-24 10:06:00,57.2,50.4,27.99,SSE,152,5.4,5.4,78,0.00,,---,1.65,VWS V14.01,2013-03-24 15:06:00,
2013-03-24 10:07:00,57.6,47.1,27.99,SSE,152,5.4,5.4,68,0.00,,---,1.65,VWS V14.01,2013-03-24 15:07:00,
2013-03-24 10:08:00,57.4,46.1,27.99,South,188,5.8,5.8,66,0.00,,---,1.65,VWS V14.01,2013-03-24 15:08:00,
2013-03-24 10:11:00,57.4,45.3,27.99,SSE,157,7.6,7.6,64,0.00,,---,1.65,VWS V14.01,2013-03-24 15:11:00,
2013-03-24 10:12:00,57.4,45.3,27.99,SSE,165,6.3,7.6,64,0.00,,---,1.65,VWS V14.01,2013-03-24 15:12:00,
2013-03-24 10:13:00,57.4,45.3,27.99,South,178,10.1,10.1,64,0.00,,---,1.65,VWS V14.01,2013-03-24 15:13:00,
2013-03-24 10:16:00,57.4,45.3,27.99,South,178,10.1,10.1,64,0.00,,---,1.65,VWS V14.01,2013-03-24 15:16:00,
2013-03-24 10:17:00,57.4,45.3,27.99,South,178,10.1,10.1,64,0.00,,---,1.65,VWS V14.01,2013-03-24 15:17:00,
2013-03-24 10:18:00,57.4,45.3,27.99,South,178,10.1,10.1,64,0.00,,---,1.65,VWS V14.01,2013-03-24 15:18:00,
2013-03-24 10:21:00,57.4,45.3,27.99,SSE,153,3.6,8.1,64,0.00,,---,1.65,VWS V14.01,2013-03-24 15:21:00,
2013-03-24 10:22:00,57.4,45.3,27.99,SSE,153,3.6,8.1,64,0.00,,---,1.65,VWS V14.01,2013-03-24 15:22:00,
2013-03-24 10:23:00,57.4,45.3,27.99,SSE,166,5.4,5.4,64,0.00,,---,1.65,VWS V14.01,2013-03-24 15:23:00,
2013-03-24 10:27:00,58.3,44.5,27.99,SSE,163,3.6,3.6,60,0.00,,---,1.65,VWS V14.01,2013-03-24 15:27:00,
2013-03-24 10:28:00,58.3,44.5,27.99,SSE,163,3.6,3.6,60,0.00,,---,1.65,VWS V14.01,2013-03-24 15:28:00,
2013-03-24 10:32:00,57.4,42.7,27.96,SSE,163,3.6,3.6,58,0.00,,---,1.65,VWS V14.01,2013-03-24 15:32:00,
2013-03-24 10:33:00,57.4,42.7,27.96,SSE,163,3.6,3.6,58,0.00,,---,1.65,VWS V14.01,2013-03-24 15:33:00,
2013-03-24 10:37:00,56.8,43.5,27.96,South,175,4.0,4.0,61,0.00,,---,1.65,VWS V14.01,2013-03-24 15:37:00,
2013-03-24 10:38:00,56.8,43.5,27.96,South,175,4.0,4.0,61,0.00,,---,1.65,VWS V14.01,2013-03-24 15:38:00,
2013-03-24 10:39:00,56.8,43.5,27.96,South,171,4.0,4.0,61,0.00,,---,1.65,VWS V14.01,2013-03-24 15:39:00,
2013-03-24 10:42:00,56.8,43.5,27.96,South,183,2.7,2.7,61,0.00,,---,1.65,VWS V14.01,2013-03-24 15:42:00,
2013-03-24 10:43:00,56.8,43.5,27.96,South,183,2.7,2.7,61,0.00,,---,1.65,VWS V14.01,2013-03-24 15:43:00,
2013-03-24 10:44:00,56.8,43.5,27.96,South,183,2.7,2.7,61,0.00,,---,1.65,VWS V14.01,2013-03-24 15:44:00,
2013-03-24 10:47:00,56.8,43.5,27.96,SSE,166,2.7,2.7,61,0.00,,---,1.65,VWS V14.01,2013-03-24 15:47:00,
2013-03-24 10:48:00,56.8,43.5,27.96,SSE,166,2.7,2.7,61,0.00,,---,1.65,VWS V14.01,2013-03-24 15:48:00,
2013-03-24 10:49:00,56.8,43.5,27.96,SSE,166,2.7,2.7,61,0.00,,---,1.65,VWS V14.01,2013-03-24 15:49:00,
2013-03-24 10:53:00,56.1,44.5,27.96,SE,145,6.3,6.3,65,0.00,,---,1.65,VWS V14.01,2013-03-24 15:53:00,
2013-03-24 10:54:00,55.9,44.4,27.96,SE,145,6.3,6.3,65,0.00,,---,1.65,VWS V14.01,2013-03-24 15:54:00,
2013-03-24 10:58:00,55.9,44.4,27.96,SSE,147,5.4,5.4,65,0.00,,---,1.65,VWS V14.01,2013-03-24 15:58:00,
2013-03-24 10:59:00,55.6,43.2,27.96,SSE,147,5.4,5.4,63,0.00,,---,1.65,VWS V14.01,2013-03-24 15:59:00,
2013-03-24 11:03:00,55.4,42.2,27.96,SE,141,6.3,6.3,61,0.00,,---,1.65,VWS V14.01,2013-03-24 16:03:00,
2013-03-24 11:05:00,55.4,42.2,27.96,South,179,6.3,6.3,61,0.00,,---,1.65,VWS V14.01,2013-03-24 16:05:00,
2013-03-24 11:08:00,55.2,43.3,27.96,SSE,158,8.1,8.1,64,0.00,,---,1.65,VWS V14.01,2013-03-24 16:08:00,
2013-03-24 11:10:00,55.2,43.3,27.96,SSE,158,8.1,8.1,64,0.00,,---,1.65,VWS V14.01,2013-03-24 16:10:00,
2013-03-24 11:13:00,54.7,43.2,27.99,SSE,158,8.1,8.1,65,0.00,,---,1.65,VWS V14.01,2013-03-24 16:13:00,
2013-03-24 11:14:00,54.7,43.2,27.99,SSE,153,8.3,8.3,65,0.00,,---,1.65,VWS V14.01,2013-03-24 16:14:00,
2013-03-24 11:15:00,54.7,43.2,27.99,SSE,151,5.8,5.8,65,0.00,,---,1.65,VWS V14.01,2013-03-24 16:15:00,
2013-03-24 11:18:00,54.5,43.8,27.99,SSE,151,5.8,5.8,67,0.00,,---,1.65,VWS V14.01,2013-03-24 16:18:00,
2013-03-24 11:19:00,54.5,43.8,27.99,SSE,154,4.0,5.8,67,0.00,,---,1.65,VWS V14.01,2013-03-24 16:19:00,
2013-03-24 11:20:00,54.5,43.8,27.99,SSE,154,4.0,4.0,67,0.00,,---,1.65,VWS V14.01,2013-03-24 16:20:00,
2013-03-24 11:23:00,54.5,44.5,27.99,SSE,154,4.0,4.0,69,0.00,,---,1.65,VWS V14.01,2013-03-24 16:23:00,
2013-03-24 11:24:00,54.5,44.5,27.96,SSE,154,4.0,4.0,69,0.00,,---,1.65,VWS V14.01,2013-03-24 16:24:00,
2013-03-24 11:25:00,54.3,44.4,27.96,SSE,154,4.0,4.0,69,0.00,,---,1.65,VWS V14.01,2013-03-24 16:25:00,
2013-03-24 11:28:00,54.1,43.8,27.96,SSE,166,5.8,5.8,68,0.00,,---,1.65,VWS V14.01,2013-03-24 16:28:00,
2013-03-24 11:29:00,54.1,43.8,27.96,SSE,165,8.1,8.1,68,0.00,,---,1.65,VWS V14.01,2013-03-24 16:29:00,
2013-03-24 11:30:00,54.1,43.8,27.96,South,187,5.8,8.1,68,0.00,,---,1.65,VWS V14.01,2013-03-24 16:30:00,
2013-03-24 11:33:00,54.1,43.4,27.96,SW,229,5.8,5.8,67,0.00,,---,1.65,VWS V14.01,2013-03-24 16:33:00,
2013-03-24 11:34:00,54.1,43.4,27.96,SW,229,5.8,5.8,67,0.00,,---,1.65,VWS V14.01,2013-03-24 16:34:00,
2013-03-24 11:35:00,54.1,43.8,27.96,SW,229,5.8,5.8,68,0.00,,---,1.65,VWS V14.01,2013-03-24 16:35:00,
2013-03-24 11:38:00,54.1,43.8,27.96,SW,229,5.8,5.8,68,0.00,,---,1.65,VWS V14.01,2013-03-24 16:38:00,
2013-03-24 11:39:00,54.0,43.3,27.96,SW,229,5.8,5.8,67,0.00,,---,1.65,VWS V14.01,2013-03-24 16:39:00,
2013-03-24 11:41:00,54.0,42.9,27.96,SW,229,5.8,5.8,66,0.00,,---,1.65,VWS V14.01,2013-03-24 16:41:00,
2013-03-24 11:43:00,54.0,42.9,27.96,SW,229,5.8,5.8,66,0.00,,---,1.65,VWS V14.01,2013-03-24 16:43:00,
2013-03-24 11:44:00,54.0,43.3,27.96,SW,229,5.8,5.8,67,0.00,,---,1.65,VWS V14.01,2013-03-24 16:44:00,
2013-03-24 11:46:00,54.1,43.8,27.96,South,169,8.1,8.1,68,0.00,,---,1.65,VWS V14.01,2013-03-24 16:46:00,
2013-03-24 11:48:00,54.0,42.5,27.96,South,186,5.4,5.4,65,0.00,,---,1.65,VWS V14.01,2013-03-24 16:48:00,
2013-03-24 11:49:00,54.0,42.5,27.96,South,186,5.4,5.4,65,0.00,,---,1.65,VWS V14.01,2013-03-24 16:49:00,
2013-03-24 11:51:00,54.0,42.5,27.96,South,186,5.4,5.4,65,0.00,,---,1.65,VWS V14.01,2013-03-24 16:51:00,
2013-03-24 11:53:00,53.8,41.9,27.96,South,186,5.4,5.4,64,0.00,,---,1.65,VWS V14.01,2013-03-24 16:53:00,
2013-03-24 11:54:00,53.8,41.9,27.96,SSE,156,7.6,7.6,64,0.00,,---,1.65,VWS V14.01,2013-03-24 16:54:00,
2013-03-24 11:56:00,53.8,41.5,27.96,SSE,156,7.6,7.6,63,0.00,,---,1.65,VWS V14.01,2013-03-24 16:56:00,
2013-03-24 11:58:00,53.8,42.3,27.96,SSE,162,7.2,11.0,65,0.00,,---,1.65,VWS V14.01,2013-03-24 16:58:00,
2013-03-24 11:59:00,53.8,42.3,27.96,SSE,162,7.2,7.2,65,0.00,,---,1.65,VWS V14.01,2013-03-24 16:59:00,
2013-03-24 12:00:00,53.8,42.3,27.96,SSE,162,7.2,7.2,65,0.00,,---,1.65,VWS V14.01,2013-03-24 17:00:00,
2013-03-24 12:01:00,53.8,42.3,27.96,SSE,149,4.9,7.2,65,0.00,,---,1.65,VWS V14.01,2013-03-24 17:01:00,
2013-03-24 12:03:00,54.0,42.5,27.96,SSE,149,4.9,4.9,65,0.00,,---,1.65,VWS V14.01,2013-03-24 17:03:00,
2013-03-24 12:04:00,54.0,42.5,27.96,SSE,149,4.9,4.9,65,0.00,,---,1.65,VWS V14.01,2013-03-24 17:04:00,
2013-03-24 12:05:00,54.0,42.5,27.96,SSE,149,4.9,4.9,65,0.00,,---,1.65,VWS V14.01,2013-03-24 17:05:00,
2013-03-24 12:06:00,54.3,42.8,27.96,SSE,149,4.9,4.9,65,0.00,,---,1.65,VWS V14.01,2013-03-24 17:06:00,
2013-03-24 12:08:00,54.5,43.0,27.96,SSE,149,4.9,4.9,65,0.00,,---,1.65,VWS V14.01,2013-03-24 17:08:00,
2013-03-24 12:10:00,54.7,43.2,27.96,SSE,149,4.9,4.9,65,0.00,,---,1.65,VWS V14.01,2013-03-24 17:10:00,
2013-03-24 12:11:00,54.9,43.3,27.96,SSE,149,4.9,4.9,65,0.00,,---,1.65,VWS V14.01,2013-03-24 17:11:00,
2013-03-24 12:14:00,55.0,42.3,27.96,SSE,154,6.3,6.3,62,0.00,,---,1.65,VWS V14.01,2013-03-24 17:14:00,
2013-03-24 12:15:00,55.2,42.4,27.96,SSE,154,6.3,6.3,62,0.00,,---,1.65,VWS V14.01,2013-03-24 17:15:00,
2013-03-24 12:16:00,55.4,42.6,27.96,SSE,154,6.3,6.3,62,0.00,,---,1.65,VWS V14.01,2013-03-24 17:16:00,
2013-03-24 12:19:00,55.2,40.7,27.96,SSE,154,6.3,6.3,58,0.00,,---,1.65,VWS V14.01,2013-03-24 17:19:00,
2013-03-24 12:20:00,55.2,40.3,27.96,South,184,4.0,6.3,57,0.00,,---,1.65,VWS V14.01,2013-03-24 17:20:00,
2013-03-24 12:22:00,55.2,40.7,27.96,South,191,10.1,10.1,58,0.00,,---,1.65,VWS V14.01,2013-03-24 17:22:00,
2013-03-24 12:24:00,55.2,40.7,27.96,South,177,4.0,4.0,58,0.00,,---,1.65,VWS V14.01,2013-03-24 17:24:00,
2013-03-24 12:25:00,55.2,41.2,27.96,South,178,6.3,7.6,59,0.00,,---,1.65,VWS V14.01,2013-03-24 17:25:00,
2013-03-24 12:27:00,55.2,41.2,27.96,SSE,164,5.4,8.7,59,0.00,,---,1.65,VWS V14.01,2013-03-24 17:27:00,
2013-03-24 12:29:00,55.2,40.3,27.96,South,183,8.7,8.7,57,0.00,,---,1.65,VWS V14.01,2013-03-24 17:29:00,
2013-03-24 12:30:00,55.2,40.7,27.96,SSE,156,5.4,5.4,58,0.00,,---,1.65,VWS V14.01,2013-03-24 17:30:00,
2013-03-24 12:32:00,55.0,39.7,27.96,South,174,4.0,6.3,56,0.00,,---,1.65,VWS V14.01,2013-03-24 17:32:00,
2013-03-24 12:34:00,55.2,39.8,27.96,SSE,151,5.4,5.4,56,0.00,,---,1.65,VWS V14.01,2013-03-24 17:34:00,
2013-03-24 12:35:00,55.0,39.7,27.96,South,186,5.8,7.6,56,0.00,,---,1.65,VWS V14.01,2013-03-24 17:35:00,
2013-03-24 12:37:00,55.0,39.2,27.96,South,176,4.0,4.0,55,0.00,,---,1.65,VWS V14.01,2013-03-24 17:37:00,
2013-03-24 12:39:00,55.0,40.1,27.96,South,186,4.0,5.4,57,0.00,,---,1.65,VWS V14.01,2013-03-24 17:39:00,
2013-03-24 12:40:00,55.0,40.1,27.96,SSW,208,7.6,7.6,57,0.00,,---,1.65,VWS V14.01,2013-03-24 17:40:00,
2013-03-24 12:42:00,55.0,40.1,27.96,SE,142,3.6,4.5,57,0.00,,---,1.65,VWS V14.01,2013-03-24 17:42:00,
2013-03-24 12:44:00,54.9,39.5,27.96,SSE,149,5.4,10.5,56,0.00,,---,1.65,VWS V14.01,2013-03-24 17:44:00,
2013-03-24 12:45:00,54.9,39.0,27.96,SSW,208,5.8,6.3,55,0.00,,---,1.65,VWS V14.01,2013-03-24 17:45:00,
2013-03-24 12:46:00,54.9,39.0,27.96,South,184,4.9,5.8,55,0.00,,---,1.65,VWS V14.01,2013-03-24 17:46:00,
2013-03-24 12:47:00,54.9,39.5,27.96,SSE,162,5.8,5.8,56,0.00,,---,1.65,VWS V14.01,2013-03-24 17:47:00,
2013-03-24 12:49:00,54.9,39.9,27.96,SSE,158,10.5,12.3,57,0.00,,---,1.65,VWS V14.01,2013-03-24 17:49:00,
2013-03-24 12:51:00,54.7,38.8,27.96,SSE,163,13.2,13.2,55,0.00,,---,1.65,VWS V14.01,2013-03-24 17:51:00,
2013-03-24 12:52:00,54.7,38.4,27.96,South,182,12.3,12.3,54,0.00,,---,1.65,VWS V14.01,2013-03-24 17:52:00,
2013-03-24 12:54:00,54.7,38.8,27.96,South,175,5.8,5.8,55,0.00,,---,1.65,VWS V14.01,2013-03-24 17:54:00,
2013-03-24 12:56:00,54.7,38.8,27.96,South,177,10.1,10.1,55,0.00,,---,1.65,VWS V14.01,2013-03-24 17:56:00,
2013-03-24 12:57:00,54.5,38.2,27.96,SE,142,8.1,10.5,54,0.00,,---,1.65,VWS V14.01,2013-03-24 17:57:00,
2013-03-24 12:59:00,54.5,38.2,27.96,South,173,10.5,10.5,54,0.00,,---,1.65,VWS V14.01,2013-03-24 17:59:00,
2013-03-24 13:01:00,54.5,38.2,27.96,South,177,6.3,8.3,54,0.00,,---,1.65,VWS V14.01,2013-03-24 18:01:00,
2013-03-24 13:02:00,54.5,38.7,27.96,SSE,164,6.3,8.7,55,0.00,,---,1.65,VWS V14.01,2013-03-24 18:02:00,
2013-03-24 13:03:00,54.5,38.7,27.96,South,178,5.8,8.7,55,0.00,,---,1.65,VWS V14.01,2013-03-24 18:03:00,
2013-03-24 13:04:00,54.5,38.7,27.96,South,178,6.3,8.3,55,0.00,,---,1.65,VWS V14.01,2013-03-24 18:04:00,
2013-03-24 13:07:00,54.5,39.1,27.96,SSE,150,10.1,11.9,56,0.00,,---,1.65,VWS V14.01,2013-03-24 18:07:00,
2013-03-24 13:08:00,54.5,39.1,27.96,SSE,160,5.4,10.1,56,0.00,,---,1.65,VWS V14.01,2013-03-24 18:08:00,
2013-03-24 13:09:00,54.7,39.3,27.96,SE,134,8.7,8.7,56,0.00,,---,1.65,VWS V14.01,2013-03-24 18:09:00,
2013-03-24 13:12:00,54.7,38.8,27.94,SSE,162,6.3,6.3,55,0.00,,---,1.65,VWS V14.01,2013-03-24 18:12:00,
2013-03-24 13:13:00,54.5,38.2,27.94,South,169,15.4,15.4,54,0.00,,---,1.65,VWS V14.01,2013-03-24 18:13:00,
2013-03-24 13:15:00,54.5,37.7,27.94,South,189,12.3,12.3,53,0.00,,---,1.65,VWS V14.01,2013-03-24 18:15:00,
2013-03-24 13:17:00,54.5,37.7,27.94,SSE,163,12.3,12.3,53,0.00,,---,1.65,VWS V14.01,2013-03-24 18:17:00,
2013-03-24 13:18:00,54.5,38.2,27.94,SE,143,5.8,12.3,54,0.00,,---,1.65,VWS V14.01,2013-03-24 18:18:00,
2013-03-24 13:20:00,54.5,39.1,27.94,South,169,5.4,8.3,56,0.00,,---,1.65,VWS V14.01,2013-03-24 18:20:00,
2013-03-24 13:22:00,54.5,39.6,27.94,SSE,153,5.4,5.8,57,0.00,,---,1.65,VWS V14.01,2013-03-24 18:22:00,
2013-03-24 13:23:00,54.5,39.6,27.94,SSE,165,5.8,5.8,57,0.00,,---,1.65,VWS V14.01,2013-03-24 18:23:00,
2013-03-24 13:25:00,54.5,39.6,27.94,SSE,150,6.3,9.6,57,0.00,,---,1.65,VWS V14.01,2013-03-24 18:25:00,
2013-03-24 13:27:00,54.5,39.6,27.94,SSE,153,6.3,8.3,57,0.00,,---,1.65,VWS V14.01,2013-03-24 18:27:00,
2013-03-24 13:28:00,54.5,39.6,27.94,SE,144,5.4,6.3,57,0.00,,---,1.65,VWS V14.01,2013-03-24 18:28:00,
2013-03-24 13:32:00,54.7,39.8,27.94,SE,145,8.3,12.3,57,0.00,,---,1.65,VWS V14.01,2013-03-24 18:32:00,
2013-03-24 13:33:00,54.7,39.8,27.94,SE,141,8.1,8.3,57,0.00,,---,1.65,VWS V14.01,2013-03-24 18:33:00,
2013-03-24 13:34:00,54.7,39.3,27.94,South,184,8.7,8.7,56,0.00,,---,1.65,VWS V14.01,2013-03-24 18:34:00,
2013-03-24 13:37:00,54.7,39.3,27.94,SSE,166,6.3,8.1,56,0.00,,---,1.65,VWS V14.01,2013-03-24 18:37:00,
2013-03-24 13:39:00,54.9,39.5,27.94,SSE,167,7.2,7.2,56,0.00,,---,1.65,VWS V14.01,2013-03-24 18:39:00,
2013-03-24 13:43:00,54.7,38.8,27.94,SSE,168,7.6,8.1,55,0.00,,---,1.65,VWS V14.01,2013-03-24 18:43:00,
2013-03-24 13:44:00,54.7,38.4,27.94,SSE,156,9.2,12.3,54,0.00,,---,1.65,VWS V14.01,2013-03-24 18:44:00,
2013-03-24 13:48:00,54.7,38.8,27.94,SE,134,7.6,7.6,55,0.00,,---,1.65,VWS V14.01,2013-03-24 18:48:00,
2013-03-24 13:49:00,54.7,38.8,27.94,SE,134,7.6,7.6,55,0.00,,---,1.65,VWS V14.01,2013-03-24 18:49:00,
2013-03-24 13:53:00,54.7,39.3,27.94,SSE,167,6.7,6.7,56,0.00,,---,1.65,VWS V14.01,2013-03-24 18:53:00,
2013-03-24 13:54:00,54.9,39.9,27.94,SE,139,8.3,8.3,57,0.00,,---,1.65,VWS V14.01,2013-03-24 18:54:00,
2013-03-24 13:58:00,54.9,39.0,27.94,SSE,154,6.3,8.7,55,0.00,,---,1.65,VWS V14.01,2013-03-24 18:58:00,
2013-03-24 13:59:00,54.7,38.4,27.94,SSE,154,6.3,6.3,54,0.00,,---,1.65,VWS V14.01,2013-03-24 18:59:00,
2013-03-24 14:00:00,54.7,38.4,27.94,ESE,119,5.8,8.7,54,0.00,,---,1.65,VWS V14.01,2013-03-24 19:00:00,
2013-03-24 14:03:00,54.5,38.2,27.94,South,172,15.0,15.0,54,0.00,,---,1.65,VWS V14.01,2013-03-24 19:03:00,
2013-03-24 14:04:00,54.5,37.7,27.94,South,191,8.3,8.3,53,0.00,,---,1.65,VWS V14.01,2013-03-24 19:04:00,
2013-03-24 14:05:00,54.5,37.7,27.94,SSE,163,12.3,12.8,53,0.00,,---,1.65,VWS V14.01,2013-03-24 19:05:00,
2013-03-24 14:09:00,54.5,37.7,27.94,SSW,195,14.5,15.4,53,0.00,,---,1.65,VWS V14.01,2013-03-24 19:09:00,
2013-03-24 14:10:00,54.5,37.7,27.94,SSE,165,8.7,14.5,53,0.00,,---,1.65,VWS V14.01,2013-03-24 19:10:00,
2013-03-24 14:14:00,54.3,38.5,27.94,SSE,166,8.3,8.3,55,0.00,,---,1.65,VWS V14.01,2013-03-24 19:14:00,
2013-03-24 14:15:00,54.3,38.5,27.94,SSW,211,6.3,6.3,55,0.00,,---,1.65,VWS V14.01,2013-03-24 19:15:00,
2013-03-24 14:19:00,54.5,39.1,27.94,SSE,161,6.7,6.7,56,0.00,,---,1.65,VWS V14.01,2013-03-24 19:19:00,
2013-03-24 14:20:00,54.3,38.5,27.94,SSE,166,8.1,8.1,55,0.00,,---,1.65,VWS V14.01,2013-03-24 19:20:00,
2013-03-24 14:24:00,54.1,37.9,27.94,South,186,10.1,10.1,54,0.00,,---,1.65,VWS V14.01,2013-03-24 19:24:00,
2013-03-24 14:25:00,54.1,37.9,27.94,SSW,200,6.3,6.3,54,0.00,,---,1.65,VWS V14.01,2013-03-24 19:25:00,
2013-03-24 14:26:00,54.1,37.9,27.94,SSW,200,6.3,6.3,54,0.00,,---,1.65,VWS V14.01,2013-03-24 19:26:00,
2013-03-24 14:29:00,54.0,37.7,27.94,South,172,7.6,7.6,54,0.00,,---,1.65,VWS V14.01,2013-03-24 19:29:00,
2013-03-24 14:30:00,53.8,38.5,27.94,SSE,156,8.7,8.7,56,0.00,,---,1.65,VWS V14.01,2013-03-24 19:30:00,
2013-03-24 14:31:00,53.8,38.5,27.94,SSE,154,11.0,11.0,56,0.00,,---,1.65,VWS V14.01,2013-03-24 19:31:00,
2013-03-24 14:34:00,53.6,37.8,27.91,South,172,15.0,15.9,55,0.00,,---,1.65,VWS V14.01,2013-03-24 19:34:00,
2013-03-24 14:35:00,53.6,37.8,27.91,South,172,15.0,15.9,55,0.00,,---,1.65,VWS V14.01,2013-03-24 19:35:00,
2013-03-24 14:36:00,53.6,37.8,27.91,SSE,154,11.0,17.0,55,0.00,,---,1.65,VWS V14.01,2013-03-24 19:36:00,
2013-03-24 14:39:00,53.6,37.8,27.91,South,172,11.0,11.0,55,0.00,,---,1.65,VWS V14.01,2013-03-24 19:39:00,
2013-03-24 14:40:00,52.9,38.5,27.91,SSE,166,12.8,12.8,58,0.00,,---,1.65,VWS V14.01,2013-03-24 19:40:00,
2013-03-24 14:41:00,52.9,39.0,27.91,SE,145,8.3,8.7,59,0.00,,---,1.65,VWS V14.01,2013-03-24 19:41:00,
2013-03-24 14:44:00,52.9,39.4,27.91,South,180,6.7,10.1,60,0.00,,---,1.65,VWS V14.01,2013-03-24 19:44:00,
2013-03-24 14:45:00,52.9,39.4,27.91,South,180,6.7,10.1,60,0.00,,---,1.65,VWS V14.01,2013-03-24 19:45:00,
2013-03-24 14:47:00,52.9,39.4,27.91,SSE,147,6.7,6.7,60,0.00,,---,1.65,VWS V14.01,2013-03-24 19:47:00,
2013-03-24 14:49:00,52.9,39.8,27.91,South,177,12.8,12.8,61,0.00,,---,1.65,VWS V14.01,2013-03-24 19:49:00,
2013-03-24 14:50:00,52.9,39.8,27.91,SSE,159,8.7,12.8,61,0.00,,---,1.65,VWS V14.01,2013-03-24 19:50:00,
2013-03-24 14:52:00,53.1,39.6,27.91,South,190,12.8,12.8,60,0.00,,---,1.65,VWS V14.01,2013-03-24 19:52:00,
2013-03-24 14:54:00,53.1,39.6,27.91,SSE,156,7.2,8.7,60,0.00,,---,1.65,VWS V14.01,2013-03-24 19:54:00,
2013-03-24 14:55:00,53.1,39.6,27.91,SSE,156,7.2,7.2,60,0.00,,---,1.65,VWS V14.01,2013-03-24 19:55:00,
2013-03-24 14:57:00,53.1,39.6,27.91,SSE,156,10.1,13.6,60,0.00,,---,1.65,VWS V14.01,2013-03-24 19:57:00,
2013-03-24 15:00:00,53.1,40.4,27.91,SE,125,10.5,10.5,62,0.00,,---,1.65,VWS V14.01,2013-03-24 20:00:00,
2013-03-24 15:02:00,53.1,40.0,27.88,SW,216,8.3,12.8,61,0.00,,---,1.65,VWS V14.01,2013-03-24 20:02:00,
2013-03-24 15:05:00,53.1,40.0,27.88,SSE,147,8.1,9.6,61,0.00,,---,1.65,VWS V14.01,2013-03-24 20:05:00,
2013-03-24 15:07:00,53.1,40.0,27.88,South,177,11.0,11.0,61,0.00,,---,1.65,VWS V14.01,2013-03-24 20:07:00,
2013-03-24 15:08:00,53.1,40.0,27.88,South,177,11.0,11.0,61,0.00,,---,1.65,VWS V14.01,2013-03-24 20:08:00,
2013-03-24 15:10:00,52.9,39.4,27.88,South,185,12.8,12.8,60,0.00,,---,1.65,VWS V14.01,2013-03-24 20:10:00,
2013-03-24 15:13:00,52.9,40.2,27.88,South,170,11.0,11.0,62,0.00,,---,1.65,VWS V14.01,2013-03-24 20:13:00,
2013-03-24 15:15:00,52.9,40.6,27.88,SSE,164,5.4,8.1,63,0.00,,---,1.65,VWS V14.01,2013-03-24 20:15:00,
2013-03-24 15:18:00,53.1,41.2,27.88,SSE,162,7.2,8.3,64,0.00,,---,1.65,VWS V14.01,2013-03-24 20:18:00,
2013-03-24 15:20:00,53.1,41.2,27.88,South,170,8.7,8.7,64,0.00,,---,1.65,VWS V14.01,2013-03-24 20:20:00,
2013-03-24 15:21:00,53.1,41.2,27.88,ESE,123,13.2,14.5,64,0.00,,---,1.65,VWS V14.01,2013-03-24 20:21:00,
2013-03-24 15:23:00,53.1,40.4,27.88,SSE,157,8.3,8.3,62,0.00,,---,1.65,VWS V14.01,2013-03-24 20:23:00,
2013-03-24 15:25:00,53.1,40.8,27.88,SSE,150,12.8,12.8,63,0.00,,---,1.65,VWS V14.01,2013-03-24 20:25:00,
2013-03-24 15:27:00,53.1,40.4,27.88,South,184,10.5,15.0,62,0.00,,---,1.65,VWS V14.01,2013-03-24 20:27:00,
2013-03-24 15:28:00,53.1,40.4,27.88,South,180,10.1,10.1,62,0.00,,---,1.65,VWS V14.01,2013-03-24 20:28:00,
2013-03-24 15:30:00,53.1,40.4,27.88,South,181,15.9,15.9,62,0.00,,---,1.65,VWS V14.01,2013-03-24 20:30:00,
2013-03-24 15:32:00,53.1,40.4,27.88,SSW,205,10.1,10.1,62,0.00,,---,1.65,VWS V14.01,2013-03-24 20:32:00,
2013-03-24 15:33:00,53.2,40.6,27.88,WNW,286,7.6,10.1,62,0.00,,---,1.65,VWS V14.01,2013-03-24 20:33:00,
2013-03-24 15:35:00,53.2,40.6,27.88,SSE,153,10.1,10.1,62,0.00,,---,1.65,VWS V14.01,2013-03-24 20:35:00,
2013-03-24 15:37:00,53.8,41.9,27.88,SSE,165,8.1,8.1,64,0.00,,---,1.65,VWS V14.01,2013-03-24 20:37:00,
2013-03-24 15:38:00,53.8,41.9,27.88,SSE,167,10.5,10.5,64,0.00,,---,1.65,VWS V14.01,2013-03-24 20:38:00,
2013-03-24 15:40:00,54.0,41.7,27.88,SE,129,9.2,9.6,63,0.00,,---,1.65,VWS V14.01,2013-03-24 20:40:00,
2013-03-24 15:42:00,54.0,41.7,27.88,SSE,165,8.3,10.5,63,0.00,,---,1.65,VWS V14.01,2013-03-24 20:42:00,
2013-03-24 15:43:00,54.3,41.2,27.88,South,180,8.3,10.5,61,0.00,,---,1.65,VWS V14.01,2013-03-24 20:43:00,
2013-03-24 15:45:00,54.3,40.8,27.88,SSE,160,11.0,11.0,60,0.00,,---,1.65,VWS V14.01,2013-03-24 20:45:00,
2013-03-24 15:47:00,54.3,40.3,27.88,SE,137,8.3,8.3,59,0.00,,---,1.65,VWS V14.01,2013-03-24 20:47:00,
2013-03-24 15:48:00,54.3,40.3,27.88,SSW,210,6.3,8.3,59,0.00,,---,1.65,VWS V14.01,2013-03-24 20:48:00,
2013-03-24 15:50:00,54.5,40.9,27.88,SSE,150,5.8,6.7,60,0.00,,---,1.65,VWS V14.01,2013-03-24 20:50:00,
2013-03-24 15:52:00,54.3,39.9,27.88,South,171,10.5,10.5,58,0.00,,---,1.65,VWS V14.01,2013-03-24 20:52:00,
2013-03-24 15:53:00,54.3,39.9,27.88,South,171,10.5,10.5,58,0.00,,---,1.65,VWS V14.01,2013-03-24 20:53:00,
2013-03-24 15:55:00,54.3,39.9,27.88,South,175,8.7,8.7,58,0.00,,---,1.65,VWS V14.01,2013-03-24 20:55:00,
2013-03-24 15:58:00,54.1,39.7,27.88,SSE,163,7.6,7.6,58,0.00,,---,1.65,VWS V14.01,2013-03-24 20:58:00,
2013-03-24 16:00:00,54.3,40.8,27.88,SE,145,9.2,9.2,60,0.00,,---,1.65,VWS V14.01,2013-03-24 21:00:00,
2013-03-24 16:03:00,54.1,40.6,27.88,SSE,151,8.1,11.0,60,0.00,,---,1.65,VWS V14.01,2013-03-24 21:03:00,
2013-03-24 16:06:00,54.1,40.1,27.88,SSE,151,8.7,8.7,59,0.00,,---,1.65,VWS V14.01,2013-03-24 21:06:00,
2013-03-24 16:08:00,54.1,40.1,27.88,South,170,6.3,10.1,59,0.00,,---,1.65,VWS V14.01,2013-03-24 21:08:00,
2013-03-24 16:11:00,54.0,40.4,27.88,South,169,5.8,5.8,60,0.00,,---,1.65,VWS V14.01,2013-03-24 21:11:00,
2013-03-24 16:13:00,54.0,40.4,27.88,South,169,13.6,13.6,60,0.00,,---,1.65,VWS V14.01,2013-03-24 21:13:00,
2013-03-24 16:14:00,54.0,40.4,27.88,South,189,8.3,13.6,60,0.00,,---,1.65,VWS V14.01,2013-03-24 21:14:00,
2013-03-24 16:16:00,53.8,40.2,27.85,SSE,168,8.7,8.7,60,0.00,,---,1.65,VWS V14.01,2013-03-24 21:16:00,
2013-03-24 16:18:00,53.6,40.9,27.85,SE,134,6.3,6.3,62,0.00,,---,1.65,VWS V14.01,2013-03-24 21:18:00,
2013-03-24 16:19:00,53.6,40.9,27.85,SE,144,4.9,4.9,62,0.00,,---,1.65,VWS V14.01,2013-03-24 21:19:00,
2013-03-24 16:21:00,53.4,41.6,27.85,SE,143,5.8,5.8,64,0.00,,---,1.65,VWS V14.01,2013-03-24 21:21:00,
2013-03-24 16:23:00,53.4,41.6,27.85,South,175,5.4,8.7,64,0.00,,---,1.65,VWS V14.01,2013-03-24 21:23:00,
2013-03-24 16:24:00,53.2,41.8,27.85,SSE,157,5.8,5.8,65,0.00,,---,1.65,VWS V14.01,2013-03-24 21:24:00,
2013-03-24 16:27:00,53.2,41.8,27.85,SSE,161,6.3,7.6,65,0.00,,---,1.65,VWS V14.01,2013-03-24 21:27:00,
2013-03-24 16:28:00,53.2,42.2,27.85,South,179,9.6,9.6,66,0.00,,---,1.65,VWS V14.01,2013-03-24 21:28:00,
2013-03-24 16:29:00,53.2,42.2,27.85,SSE,167,10.1,10.1,66,0.00,,---,1.65,VWS V14.01,2013-03-24 21:29:00,
2013-03-24 16:32:00,53.2,42.2,27.85,SSE,152,3.1,7.6,66,0.00,,---,1.65,VWS V14.01,2013-03-24 21:32:00,
2013-03-24 16:33:00,53.2,42.2,27.85,SSE,164,5.4,8.1,66,0.00,,---,1.65,VWS V14.01,2013-03-24 21:33:00,
2013-03-24 16:34:00,53.2,42.2,27.85,SE,144,5.8,8.1,66,0.00,,---,1.65,VWS V14.01,2013-03-24 21:34:00,
2013-03-24 16:37:00,52.7,43.2,27.85,SSE,164,5.4,8.3,70,0.00,,---,1.65,VWS V14.01,2013-03-24 21:37:00,
2013-03-24 16:38:00,52.7,43.2,27.85,SSE,162,5.4,5.4,70,0.00,,---,1.65,VWS V14.01,2013-03-24 21:38:00,
2013-03-24 16:39:00,52.5,43.8,27.85,SSE,163,5.8,5.8,72,0.04,,---,1.69,VWS V14.01,2013-03-24 21:39:00,
2013-03-24 16:42:00,52.3,44.0,27.85,SSE,159,3.1,4.0,73,0.04,,---,1.69,VWS V14.01,2013-03-24 21:42:00,
2013-03-24 16:43:00,52.3,44.0,27.85,SSW,203,3.1,3.1,73,0.04,,---,1.69,VWS V14.01,2013-03-24 21:43:00,
2013-03-24 16:44:00,52.3,44.0,27.85,SSW,193,0.0,0.0,73,0.04,,---,1.69,VWS V14.01,2013-03-24 21:44:00,
2013-03-24 16:47:00,52.2,44.1,27.85,South,182,4.9,4.9,74,0.04,,---,1.69,VWS V14.01,2013-03-24 21:47:00,
2013-03-24 16:48:00,52.2,44.1,27.85,South,185,5.4,5.4,74,0.04,,---,1.69,VWS V14.01,2013-03-24 21:48:00,
2013-03-24 16:49:00,52.0,44.3,27.85,South,183,2.7,6.3,75,0.04,,---,1.69,VWS V14.01,2013-03-24 21:49:00,
2013-03-24 16:52:00,52.0,44.3,27.85,South,183,2.7,2.7,75,0.04,,---,1.69,VWS V14.01,2013-03-24 21:52:00,
2013-03-24 16:53:00,52.0,44.3,27.85,South,183,0.0,0.0,75,0.04,,---,1.69,VWS V14.01,2013-03-24 21:53:00,
2013-03-24 16:54:00,52.0,44.3,27.85,South,190,0.0,4.0,75,0.04,,---,1.69,VWS V14.01,2013-03-24 21:54:00,
2013-03-24 16:55:00,52.0,44.3,27.85,South,190,0.0,4.0,75,0.04,,---,1.69,VWS V14.01,2013-03-24 21:55:00,
2013-03-24 16:57:00,51.8,44.1,27.85,WSW,249,2.7,2.7,75,0.04,,---,1.69,VWS V14.01,2013-03-24 21:57:00,
2013-03-24 16:59:00,52.0,44.7,27.85,West,264,2.2,2.7,76,0.04,,---,1.69,VWS V14.01,2013-03-24 21:59:00,
2013-03-24 17:00:00,52.0,45.0,27.85,WSW,243,2.2,4.0,77,0.04,,---,1.69,VWS V14.01,2013-03-24 22:00:00,
2013-03-24 17:02:00,52.0,45.0,27.85,SSE,168,5.4,5.4,77,0.04,,---,1.69,VWS V14.01,2013-03-24 22:02:00,
2013-03-24 17:04:00,52.0,46.0,27.85,WNW,298,2.7,5.4,80,0.04,,---,1.69,VWS V14.01,2013-03-24 22:04:00,
2013-03-24 17:05:00,52.2,46.5,27.85,WNW,298,2.7,2.7,81,0.04,,---,1.69,VWS V14.01,2013-03-24 22:05:00,
2013-03-24 17:07:00,52.2,46.5,27.85,South,179,2.7,3.1,81,0.04,,---,1.69,VWS V14.01,2013-03-24 22:07:00,
2013-03-24 17:09:00,52.2,46.5,27.85,South,185,4.9,4.9,81,0.04,,---,1.69,VWS V14.01,2013-03-24 22:09:00,
2013-03-24 17:10:00,52.2,46.5,27.85,WSW,257,4.0,4.9,81,0.04,,---,1.69,VWS V14.01,2013-03-24 22:10:00,
2013-03-24 17:13:00,52.0,46.3,27.88,SSE,164,4.0,4.0,81,0.04,,---,1.69,VWS V14.01,2013-03-24 22:13:00,
2013-03-24 17:14:00,52.2,46.5,27.88,North,353,8.3,8.3,81,0.04,,---,1.69,VWS V14.01,2013-03-24 22:14:00,
2013-03-24 17:15:00,52.2,46.5,27.88,North,353,8.3,8.3,81,0.04,,---,1.69,VWS V14.01,2013-03-24 22:15:00,
2013-03-24 17:18:00,52.0,46.0,27.88,SW,236,2.2,4.9,80,0.04,,---,1.69,VWS V14.01,2013-03-24 22:18:00,
2013-03-24 17:19:00,52.2,45.8,27.88,SSE,165,4.0,4.0,79,0.04,,---,1.69,VWS V14.01,2013-03-24 22:19:00,
2013-03-24 17:20:00,52.2,45.8,27.88,SSE,167,3.1,3.1,79,0.04,,---,1.69,VWS V14.01,2013-03-24 22:20:00,
2013-03-24 17:23:00,52.0,44.7,27.88,SW,229,0.0,0.0,76,0.04,,---,1.69,VWS V14.01,2013-03-24 22:23:00,
2013-03-24 17:24:00,52.0,44.3,27.88,WSW,250,0.0,0.0,75,0.04,,---,1.69,VWS V14.01,2013-03-24 22:24:00,
2013-03-24 17:25:00,52.0,44.3,27.91,SSE,162,2.2,3.1,75,0.04,,---,1.69,VWS V14.01,2013-03-24 22:25:00,
2013-03-24 17:28:00,52.0,44.0,27.91,South,175,5.4,5.4,74,0.04,,---,1.69,VWS V14.01,2013-03-24 22:28:00,
2013-03-24 17:29:00,52.0,44.0,27.91,WSW,252,4.0,5.4,74,0.04,,---,1.69,VWS V14.01,2013-03-24 22:29:00,
2013-03-24 17:30:00,52.0,44.0,27.91,South,177,0.0,4.0,74,0.04,,---,1.69,VWS V14.01,2013-03-24 22:30:00,
2013-03-24 17:33:00,52.2,43.8,27.91,West,278,4.0,4.0,73,0.04,,---,1.69,VWS V14.01,2013-03-24 22:33:00,
2013-03-24 17:34:00,52.0,42.9,27.91,West,278,4.0,4.0,71,0.16,,---,1.81,VWS V14.01,2013-03-24 22:34:00,
2013-03-24 17:35:00,52.2,43.1,27.91,East,97,0.0,4.0,71,0.16,,---,1.81,VWS V14.01,2013-03-24 22:35:00,
2013-03-24 17:38:00,52.2,43.1,27.91,WSW,248,4.9,4.9,71,0.16,,---,1.81,VWS V14.01,2013-03-24 22:38:00,
2013-03-24 17:39:00,52.2,43.1,27.91,South,179,2.7,2.7,71,0.12,,---,1.81,VWS V14.01,2013-03-24 22:39:00,
2013-03-24 17:40:00,52.2,43.1,27.91,South,179,2.7,2.7,71,0.12,,---,1.81,VWS V14.01,2013-03-24 22:40:00,
2013-03-24 17:41:00,52.2,43.1,27.91,South,179,0.0,2.7,71,0.12,,---,1.81,VWS V14.01,2013-03-24 22:41:00,
2013-03-24 17:43:00,52.3,43.2,27.91,WSW,247,0.0,3.6,71,0.12,,---,1.81,VWS V14.01,2013-03-24 22:43:00,
2013-03-24 17:44:00,52.3,43.2,27.91,WSW,247,0.0,0.0,71,0.12,,---,1.81,VWS V14.01,2013-03-24 22:44:00,
2013-03-24 17:45:00,52.3,42.9,27.91,SW,224,2.2,2.2,70,0.12,,---,1.81,VWS V14.01,2013-03-24 22:45:00,
2013-03-24 17:46:00,52.3,42.9,27.91,SW,224,0.0,2.2,70,0.12,,---,1.81,VWS V14.01,2013-03-24 22:46:00,
2013-03-24 17:48:00,52.3,42.9,27.91,South,175,6.3,6.3,70,0.12,,---,1.81,VWS V14.01,2013-03-24 22:48:00,
2013-03-24 17:49:00,52.3,42.9,27.91,SW,219,0.0,5.8,70,0.12,,---,1.81,VWS V14.01,2013-03-24 22:49:00,
2013-03-24 17:50:00,52.3,42.9,27.91,South,173,0.0,0.0,70,0.12,,---,1.81,VWS V14.01,2013-03-24 22:50:00,
2013-03-24 17:51:00,52.2,41.9,27.91,SSE,168,3.6,3.6,68,0.12,,---,1.81,VWS V14.01,2013-03-24 22:51:00,
2013-03-24 17:53:00,52.2,41.9,27.91,SSW,208,0.0,0.0,68,0.12,,---,1.81,VWS V14.01,2013-03-24 22:53:00,
2013-03-24 17:54:00,52.2,41.9,27.91,SW,216,0.0,0.0,68,0.12,,---,1.81,VWS V14.01,2013-03-24 22:54:00,
2013-03-24 17:55:00,52.2,41.9,27.91,SSE,153,2.7,2.7,68,0.12,,---,1.81,VWS V14.01,2013-03-24 22:55:00,
2013-03-24 17:57:00,52.2,41.5,27.91,SSE,159,2.7,3.6,67,0.12,,---,1.81,VWS V14.01,2013-03-24 22:57:00,
2013-03-24 17:59:00,52.0,41.0,27.94,SSE,168,2.7,3.6,66,0.12,,---,1.81,VWS V14.01,2013-03-24 22:59:00,
2013-03-24 18:00:00,51.8,39.2,27.94,NE,45,0.0,4.9,62,0.12,,---,1.81,VWS V14.01,2013-03-24 23:00:00,
2013-03-24 18:02:00,51.4,37.2,27.94,NE,39,8.1,8.7,58,0.12,,---,1.81,VWS V14.01,2013-03-24 23:02:00,
2013-03-24 18:04:00,51.4,37.2,27.94,South,174,2.7,2.7,58,0.12,,---,1.81,VWS V14.01,2013-03-24 23:04:00,
2013-03-24 18:05:00,52.0,37.2,27.94,SSW,213,2.7,2.7,57,0.12,,---,1.81,VWS V14.01,2013-03-24 23:05:00,
2013-03-24 18:07:00,51.8,36.6,27.94,West,274,0.0,2.7,56,0.12,,---,1.81,VWS V14.01,2013-03-24 23:07:00,
2013-03-24 18:09:00,51.8,37.1,27.94,South,169,0.0,3.6,57,0.12,,---,1.81,VWS V14.01,2013-03-24 23:09:00,
2013-03-24 18:10:00,51.8,37.1,27.94,SSE,168,0.0,0.0,57,0.12,,---,1.81,VWS V14.01,2013-03-24 23:10:00,
2013-03-24 18:12:00,51.6,36.9,27.94,South,191,2.2,3.1,57,0.12,,---,1.81,VWS V14.01,2013-03-24 23:12:00,
2013-03-24 18:14:00,51.4,36.3,27.94,South,182,3.1,3.1,56,0.12,,---,1.81,VWS V14.01,2013-03-24 23:14:00,
2013-03-24 18:15:00,51.4,36.3,27.94,South,179,5.4,5.4,56,0.12,,---,1.81,VWS V14.01,2013-03-24 23:15:00,
2013-03-24 18:17:00,51.1,33.6,27.94,SSE,166,6.3,6.3,51,0.12,,---,1.81,VWS V14.01,2013-03-24 23:17:00,
2013-03-24 18:19:00,50.9,32.9,27.94,SW,225,3.6,3.6,50,0.12,,---,1.81,VWS V14.01,2013-03-24 23:19:00,
2013-03-24 18:20:00,50.9,32.9,27.94,SW,225,3.6,3.6,50,0.12,,---,1.81,VWS V14.01,2013-03-24 23:20:00,
2013-03-24 18:21:00,51.1,33.1,27.94,SSE,162,5.4,5.4,50,0.12,,---,1.81,VWS V14.01,2013-03-24 23:21:00,
2013-03-24 18:22:00,51.1,33.1,27.94,South,179,3.6,3.6,50,0.12,,---,1.81,VWS V14.01,2013-03-24 23:22:00,
2013-03-24 18:24:00,50.7,32.8,27.94,WSW,250,0.0,5.8,50,0.12,,---,1.81,VWS V14.01,2013-03-24 23:24:00,
2013-03-24 18:25:00,50.7,32.8,27.94,WSW,250,0.0,5.8,50,0.12,,---,1.81,VWS V14.01,2013-03-24 23:25:00,
2013-03-24 18:26:00,50.5,32.1,27.94,South,173,5.4,5.4,49,0.12,,---,1.81,VWS V14.01,2013-03-24 23:26:00,
2013-03-24 18:27:00,50.5,32.1,27.94,SSW,192,0.0,5.4,49,0.12,,---,1.81,VWS V14.01,2013-03-24 23:27:00,
2013-03-24 18:30:00,50.5,32.1,27.94,SW,225,7.2,7.2,49,0.12,,---,1.81,VWS V14.01,2013-03-24 23:30:00,
2013-03-24 18:32:00,50.2,32.3,27.94,SSE,155,0.0,0.0,50,0.12,,---,1.81,VWS V14.01,2013-03-24 23:32:00,
2013-03-24 18:34:00,50.2,32.3,27.94,South,183,0.0,0.0,50,0.00,,---,1.81,VWS V14.01,2013-03-24 23:34:00,
2013-03-24 18:35:00,50.0,32.1,27.94,South,183,0.0,0.0,50,0.00,,---,1.81,VWS V14.01,2013-03-24 23:35:00,
2013-03-24 18:37:00,50.0,32.1,27.94,SW,235,2.2,2.2,50,0.00,,---,1.81,VWS V14.01,2013-03-24 23:37:00,
2013-03-24 18:40:00,49.8,32.9,27.91,South,184,5.8,5.8,52,0.00,,---,1.81,VWS V14.01,2013-03-24 23:40:00,
2013-03-24 18:42:00,49.6,32.8,27.91,South,184,0.0,0.0,52,0.00,,---,1.81,VWS V14.01,2013-03-24 23:42:00,
2013-03-24 18:45:00,49.5,33.1,27.91,South,184,0.0,0.0,53,0.00,,---,1.81,VWS V14.01,2013-03-24 23:45:00,
2013-03-24 18:47:00,49.5,33.1,27.91,SSW,211,0.0,0.0,53,0.00,,---,1.81,VWS V14.01,2013-03-24 23:47:00,
2013-03-24 18:50:00,49.5,33.1,27.91,WSW,249,0.0,0.0,53,0.00,,---,1.81,VWS V14.01,2013-03-24 23:50:00,
2013-03-24 18:52:00,49.5,33.1,27.91,SW,219,0.0,0.0,53,0.00,,---,1.81,VWS V14.01,2013-03-24 23:52:00,
2013-03-24 18:53:00,49.5,33.1,27.91,SW,232,0.0,0.0,53,0.00,,---,1.81,VWS V14.01,2013-03-24 23:53:00,
2013-03-24 18:55:00,49.5,33.1,27.94,WSW,249,2.2,2.2,53,0.00,,---,1.81,VWS V14.01,2013-03-24 23:55:00,
2013-03-24 18:57:00,49.5,33.1,27.94,WSW,249,2.2,2.2,53,0.00,,---,1.81,VWS V14.01,2013-03-24 23:57:00,
2013-03-24 18:58:00,49.5,33.1,27.94,WNW,289,0.0,2.2,53,0.00,,---,1.81,VWS V14.01,2013-03-24 23:58:00,
2013-03-24 19:00:00,49.5,33.1,27.94,ENE,60,3.1,3.1,53,0.00,,---,1.81,VWS V14.01,2013-03-25 00:00:00,
2013-03-24 19:01:00,49.5,33.1,27.94,ENE,60,3.1,3.1,53,0.00,,---,1.81,VWS V14.01,2013-03-25 00:01:00,
2013-03-24 19:02:00,49.5,33.5,27.94,NNW,338,3.6,3.6,54,0.00,,---,1.81,VWS V14.01,2013-03-25 00:02:00,
2013-03-24 19:03:00,49.5,33.5,27.94,NNW,338,3.6,3.6,54,0.00,,---,1.81,VWS V14.01,2013-03-25 00:03:00,
2013-03-24 19:05:00,49.5,33.5,27.94,WSW,241,5.4,5.4,54,0.00,,---,1.81,VWS V14.01,2013-03-25 00:05:00,
2013-03-24 19:06:00,49.5,33.5,27.94,WSW,241,5.4,5.4,54,0.00,,---,1.81,VWS V14.01,2013-03-25 00:06:00,
2013-03-24 19:07:00,49.3,34.3,27.94,South,179,6.3,6.3,56,0.00,,---,1.81,VWS V14.01,2013-03-25 00:07:00,
2013-03-24 19:08:00,49.3,34.3,27.94,NE,50,2.7,6.3,56,0.00,,---,1.81,VWS V14.01,2013-03-25 00:08:00,
2013-03-24 19:11:00,48.9,33.9,27.94,WNW,286,3.1,3.1,56,0.00,,---,1.81,VWS V14.01,2013-03-25 00:11:00,
2013-03-24 19:12:00,48.7,33.8,27.94,South,180,3.1,3.1,56,0.00,,---,1.81,VWS V14.01,2013-03-25 00:12:00,
2013-03-24 19:13:00,48.6,33.6,27.94,West,278,9.2,9.2,56,0.00,,---,1.81,VWS V14.01,2013-03-25 00:13:00,
2013-03-24 19:16:00,48.6,32.7,27.94,South,188,5.4,5.4,54,0.00,,---,1.81,VWS V14.01,2013-03-25 00:16:00,
2013-03-24 19:17:00,48.6,32.7,27.94,SW,236,2.2,6.3,54,0.00,,---,1.81,VWS V14.01,2013-03-25 00:17:00,
2013-03-24 19:18:00,48.6,32.7,27.94,SW,236,2.2,6.3,54,0.00,,---,1.81,VWS V14.01,2013-03-25 00:18:00,
2013-03-24 19:19:00,48.2,32.3,27.94,SSW,199,3.1,6.3,54,0.00,,---,1.81,VWS V14.01,2013-03-25 00:19:00,
2013-03-24 19:21:00,48.2,32.3,27.94,West,280,3.1,3.1,54,0.00,,---,1.81,VWS V14.01,2013-03-25 00:21:00,
2013-03-24 19:23:00,48.2,32.3,27.94,West,280,3.1,3.1,54,0.00,,---,1.81,VWS V14.01,2013-03-25 00:23:00,
2013-03-24 19:24:00,48.0,32.2,27.96,West,280,3.1,3.1,54,0.00,,---,1.81,VWS V14.01,2013-03-25 00:24:00,
2013-03-24 19:27:00,48.0,32.2,27.96,NW,322,4.0,4.0,54,0.00,,---,1.81,VWS V14.01,2013-03-25 00:27:00,
2013-03-24 19:28:00,48.0,32.2,27.96,North,357,4.0,4.0,54,0.00,,---,1.81,VWS V14.01,2013-03-25 00:28:00,
2013-03-24 19:29:00,47.8,32.5,27.96,NNW,343,3.1,3.1,55,0.00,,---,1.81,VWS V14.01,2013-03-25 00:29:00,
2013-03-24 19:32:00,48.0,31.2,27.96,WSW,249,4.0,4.0,52,0.00,,---,1.81,VWS V14.01,2013-03-25 00:32:00,
2013-03-24 19:33:00,48.0,31.2,27.96,East,92,7.2,7.2,52,0.00,,---,1.81,VWS V14.01,2013-03-25 00:33:00,
2013-03-24 19:34:00,48.0,29.3,27.96,East,92,7.2,7.2,48,0.00,,---,1.81,VWS V14.01,2013-03-25 00:34:00,
2013-03-24 19:37:00,47.8,28.6,27.96,SE,136,3.6,8.3,47,0.00,,---,1.81,VWS V14.01,2013-03-25 00:37:00,
2013-03-24 19:38:00,47.8,27.5,27.96,ENE,57,4.0,4.0,45,0.00,,---,1.81,VWS V14.01,2013-03-25 00:38:00,
2013-03-24 19:39:00,47.8,28.1,27.96,ENE,57,4.0,4.0,46,0.00,,---,1.81,VWS V14.01,2013-03-25 00:39:00,
2013-03-24 19:42:00,47.7,27.4,27.96,NE,52,4.0,4.0,45,0.00,,---,1.81,VWS V14.01,2013-03-25 00:42:00,
2013-03-24 19:43:00,47.5,27.2,27.96,NE,52,4.0,4.0,45,0.00,,---,1.81,VWS V14.01,2013-03-25 00:43:00,
2013-03-24 19:44:00,47.1,25.8,27.96,ESE,123,6.3,6.3,43,0.00,,---,1.81,VWS V14.01,2013-03-25 00:44:00,
2013-03-24 19:47:00,46.8,23.1,27.96,NNE,24,4.9,8.3,39,0.00,,---,1.81,VWS V14.01,2013-03-25 00:47:00,
2013-03-24 19:48:00,46.8,23.1,27.96,North,357,3.6,3.6,39,0.00,,---,1.81,VWS V14.01,2013-03-25 00:48:00,
2013-03-24 19:49:00,46.8,23.1,27.96,WSW,257,6.3,6.3,39,0.00,,---,1.81,VWS V14.01,2013-03-25 00:49:00,
2013-03-24 19:50:00,46.8,23.1,27.96,WSW,257,6.3,6.3,39,0.00,,---,1.81,VWS V14.01,2013-03-25 00:50:00,
2013-03-24 19:52:00,46.0,22.5,27.96,SSE,155,2.7,5.8,39,0.00,,---,1.81,VWS V14.01,2013-03-25 00:52:00,
2013-03-24 19:53:00,46.0,22.5,27.99,SSE,155,2.7,2.7,39,0.00,,---,1.81,VWS V14.01,2013-03-25 00:53:00,
2013-03-24 19:54:00,46.0,22.5,27.99,SSE,155,2.7,2.7,39,0.00,,---,1.81,VWS V14.01,2013-03-25 00:54:00,
2013-03-24 19:55:00,46.0,22.5,27.99,East,92,2.7,2.7,39,0.00,,---,1.81,VWS V14.01,2013-03-25 00:55:00,
2013-03-24 19:57:00,45.1,21.7,27.99,WSW,250,3.1,3.1,39,0.00,,---,1.81,VWS V14.01,2013-03-25 00:57:00,
2013-03-24 19:58:00,45.1,21.7,27.99,WSW,250,3.1,3.1,39,0.00,,---,1.81,VWS V14.01,2013-03-25 00:58:00,
2013-03-24 20:00:00,44.8,22.0,27.99,ENE,57,4.0,4.0,40,0.00,,---,1.81,VWS V14.01,2013-03-25 01:00:00,
2013-03-24 20:02:00,44.2,21.5,27.99,ENE,71,5.8,5.8,40,0.00,,---,1.81,VWS V14.01,2013-03-25 01:02:00,
2013-03-24 20:03:00,44.2,21.5,27.99,North,357,3.6,5.8,40,0.00,,---,1.81,VWS V14.01,2013-03-25 01:03:00,
2013-03-24 20:05:00,44.1,20.7,27.99,NE,54,4.9,4.9,39,0.00,,---,1.81,VWS V14.01,2013-03-25 01:05:00,
2013-03-24 20:08:00,43.9,20.5,27.99,NE,48,7.2,7.2,39,0.00,,---,1.81,VWS V14.01,2013-03-25 01:08:00,
2013-03-24 20:10:00,43.9,20.5,28.02,ESE,102,2.7,4.0,39,0.00,,---,1.81,VWS V14.01,2013-03-25 01:10:00,
2013-03-24 20:13:00,43.7,20.4,28.02,NE,44,7.6,7.6,39,0.00,,---,1.81,VWS V14.01,2013-03-25 01:13:00,
2013-03-24 20:15:00,43.5,20.2,28.02,SW,222,17.0,17.0,39,0.00,,---,1.81,VWS V14.01,2013-03-25 01:15:00,
2013-03-24 20:18:00,43.5,20.2,28.02,NE,45,4.0,5.8,39,0.04,,---,1.85,VWS V14.01,2013-03-25 01:18:00,
2013-03-24 20:19:00,43.5,20.2,28.02,NE,51,8.1,8.1,39,0.04,,---,1.85,VWS V14.01,2013-03-25 01:19:00,
2013-03-24 20:20:00,43.5,20.8,28.02,NE,51,8.1,8.1,40,0.04,,---,1.85,VWS V14.01,2013-03-25 01:20:00,
2013-03-24 20:23:00,43.3,20.1,28.02,NE,41,2.7,9.6,39,0.04,,---,1.85,VWS V14.01,2013-03-25 01:23:00,
2013-03-24 20:24:00,43.3,20.1,28.02,SW,221,4.0,4.0,39,0.04,,---,1.85,VWS V14.01,2013-03-25 01:24:00,
2013-03-24 20:25:00,43.2,19.9,28.02,SE,138,3.6,8.1,39,0.04,,---,1.85,VWS V14.01,2013-03-25 01:25:00,
2013-03-24 20:28:00,43.2,20.5,28.02,WSW,241,4.0,4.0,40,0.04,,---,1.85,VWS V14.01,2013-03-25 01:28:00,
2013-03-24 20:29:00,43.2,20.5,28.02,NW,320,4.0,4.0,40,0.04,,---,1.85,VWS V14.01,2013-03-25 01:29:00,
2013-03-24 20:30:00,43.2,20.5,28.02,SW,223,3.1,3.1,40,0.04,,---,1.85,VWS V14.01,2013-03-25 01:30:00,
2013-03-24 20:33:00,42.8,20.2,28.02,NW,320,8.3,8.3,40,0.04,,---,1.85,VWS V14.01,2013-03-25 01:33:00,
2013-03-24 20:34:00,42.8,20.2,28.02,NE,50,3.1,8.3,40,0.04,,---,1.85,VWS V14.01,2013-03-25 01:34:00,
2013-03-24 20:35:00,42.8,20.2,28.02,WSW,247,3.6,3.6,40,0.04,,---,1.85,VWS V14.01,2013-03-25 01:35:00,
2013-03-24 20:38:00,42.6,20.6,28.02,NW,305,10.5,10.5,41,0.04,,---,1.85,VWS V14.01,2013-03-25 01:38:00,
2013-03-24 20:39:00,42.6,20.6,28.02,WSW,247,6.3,10.5,41,0.04,,---,1.85,VWS V14.01,2013-03-25 01:39:00,
2013-03-24 20:40:00,42.4,19.2,28.05,West,269,8.1,8.1,39,0.04,,---,1.85,VWS V14.01,2013-03-25 01:40:00,
2013-03-24 20:41:00,42.4,19.2,28.05,ENE,75,5.8,8.1,39,0.04,,---,1.85,VWS V14.01,2013-03-25 01:41:00,
2013-03-24 20:43:00,42.3,19.7,28.05,WSW,245,2.7,3.1,40,0.04,,---,1.85,VWS V14.01,2013-03-25 01:43:00,
2013-03-24 20:44:00,42.3,19.7,28.05,WSW,245,2.7,2.7,40,0.04,,---,1.85,VWS V14.01,2013-03-25 01:44:00,
2013-03-24 20:45:00,42.1,19.5,28.05,North,357,5.4,8.1,40,0.04,,---,1.85,VWS V14.01,2013-03-25 01:45:00,
2013-03-24 20:46:00,42.1,19.5,28.05,North,357,5.4,5.4,40,0.04,,---,1.85,VWS V14.01,2013-03-25 01:46:00,
2013-03-24 20:49:00,42.1,19.5,28.05,NNE,32,4.9,11.4,40,0.04,,---,1.85,VWS V14.01,2013-03-25 01:49:00,
2013-03-24 20:50:00,41.9,19.4,28.05,North,9,8.3,8.3,40,0.04,,---,1.85,VWS V14.01,2013-03-25 01:50:00,
2013-03-24 20:51:00,41.9,19.4,28.05,North,9,8.3,8.3,40,0.04,,---,1.85,VWS V14.01,2013-03-25 01:51:00,
2013-03-24 20:54:00,41.7,19.2,28.05,SSE,167,3.6,6.3,40,0.04,,---,1.85,VWS V14.01,2013-03-25 01:54:00,
2013-03-24 20:55:00,41.7,19.2,28.05,West,259,2.7,3.6,40,0.04,,---,1.85,VWS V14.01,2013-03-25 01:55:00,
2013-03-24 20:56:00,41.7,19.2,28.05,NW,310,3.1,3.1,40,0.04,,---,1.85,VWS V14.01,2013-03-25 01:56:00,
2013-03-24 20:59:00,41.5,19.0,28.05,SW,232,6.3,6.3,40,0.04,,---,1.85,VWS V14.01,2013-03-25 01:59:00,
2013-03-24 21:01:00,41.5,19.6,28.05,West,259,2.7,3.1,41,0.04,,---,1.85,VWS V14.01,2013-03-25 02:01:00,
2013-03-24 21:02:00,41.5,19.6,28.05,South,188,4.0,4.0,41,0.04,,---,1.85,VWS V14.01,2013-03-25 02:02:00,
2013-03-24 21:04:00,41.5,19.6,28.05,East,90,4.0,6.3,41,0.04,,---,1.85,VWS V14.01,2013-03-25 02:04:00,
2013-03-24 21:06:00,41.4,18.9,28.05,SW,229,7.6,7.6,40,0.04,,---,1.85,VWS V14.01,2013-03-25 02:06:00,
2013-03-24 21:07:00,41.4,19.5,28.05,SSW,210,2.7,7.6,41,0.04,,---,1.85,VWS V14.01,2013-03-25 02:07:00,
2013-03-24 21:09:00,41.2,19.3,28.05,SSW,213,3.1,4.0,41,0.04,,---,1.85,VWS V14.01,2013-03-25 02:09:00,
2013-03-24 21:11:00,41.2,19.3,28.05,ENE,75,2.7,2.7,41,0.04,,---,1.85,VWS V14.01,2013-03-25 02:11:00,
2013-03-24 21:12:00,41.2,19.3,28.05,North,353,8.1,8.1,41,0.04,,---,1.85,VWS V14.01,2013-03-25 02:12:00,
2013-03-24 21:14:00,41.2,19.9,28.05,South,189,2.2,2.2,42,0.04,,---,1.85,VWS V14.01,2013-03-25 02:14:00,
2013-03-24 21:15:00,41.2,19.9,28.05,SW,223,7.2,7.2,42,0.04,,---,1.85,VWS V14.01,2013-03-25 02:15:00,
2013-03-24 21:16:00,41.2,19.9,28.05,WSW,250,3.1,3.1,42,0.00,,---,1.85,VWS V14.01,2013-03-25 02:16:00,
2013-03-24 21:17:00,41.0,19.7,28.05,WSW,250,3.1,3.1,42,0.00,,---,1.85,VWS V14.01,2013-03-25 02:17:00,
2013-03-24 21:19:00,41.0,19.7,28.05,WSW,256,2.7,2.7,42,0.00,,---,1.85,VWS V14.01,2013-03-25 02:19:00,
2013-03-24 21:20:00,41.0,19.7,28.05,WSW,245,2.2,2.7,42,0.00,,---,1.85,VWS V14.01,2013-03-25 02:20:00,
2013-03-24 21:22:00,41.0,19.7,28.05,West,266,3.1,3.6,42,0.00,,---,1.85,VWS V14.01,2013-03-25 02:22:00,
2013-03-24 21:24:00,41.0,19.7,28.05,SE,130,4.9,4.9,42,0.00,,---,1.85,VWS V14.01,2013-03-25 02:24:00,
2013-03-24 21:25:00,41.0,19.7,28.05,South,186,5.8,5.8,42,0.00,,---,1.85,VWS V14.01,2013-03-25 02:25:00,
2013-03-24 21:27:00,41.0,19.7,28.05,North,4,5.4,5.4,42,0.00,,---,1.85,VWS V14.01,2013-03-25 02:27:00,
2013-03-24 21:29:00,41.0,19.1,28.05,SW,219,12.8,12.8,41,0.00,,---,1.85,VWS V14.01,2013-03-25 02:29:00,
2013-03-24 21:30:00,40.8,18.4,28.05,SW,219,12.8,12.8,40,0.00,,---,1.85,VWS V14.01,2013-03-25 02:30:00,
2013-03-24 21:32:00,41.0,18.5,28.05,SSE,148,3.1,3.1,40,0.00,,---,1.85,VWS V14.01,2013-03-25 02:32:00,
2013-03-24 21:33:00,41.0,19.1,28.05,South,183,7.6,7.6,41,0.00,,---,1.85,VWS V14.01,2013-03-25 02:33:00,
2013-03-24 21:34:00,41.0,18.5,28.05,East,79,3.1,3.1,40,0.00,,---,1.85,VWS V14.01,2013-03-25 02:34:00,
2013-03-24 21:35:00,41.0,18.5,28.05,East,79,3.1,3.1,40,0.00,,---,1.85,VWS V14.01,2013-03-25 02:35:00,
2013-03-24 21:37:00,40.8,18.4,28.05,WNW,285,6.3,6.3,40,0.00,,---,1.85,VWS V14.01,2013-03-25 02:37:00,
2013-03-24 21:38:00,41.0,18.5,28.05,ENE,59,3.1,3.1,40,0.00,,---,1.85,VWS V14.01,2013-03-25 02:38:00,
2013-03-24 21:39:00,41.0,18.5,28.05,ENE,73,0.0,3.1,40,0.00,,---,1.85,VWS V14.01,2013-03-25 02:39:00,
2013-03-24 21:40:00,40.8,18.4,28.05,NW,304,8.3,8.3,40,0.00,,---,1.85,VWS V14.01,2013-03-25 02:40:00,
2013-03-24 21:42:00,40.8,18.4,28.05,South,182,4.9,4.9,40,0.00,,---,1.85,VWS V14.01,2013-03-25 02:42:00,
2013-03-24 21:43:00,40.8,18.4,28.05,South,182,4.9,4.9,40,0.00,,---,1.85,VWS V14.01,2013-03-25 02:43:00,
2013-03-24 21:45:00,40.8,18.4,28.05,South,187,7.2,7.2,40,0.00,,---,1.85,VWS V14.01,2013-03-25 02:45:00,
2013-03-24 21:47:00,40.6,18.8,28.05,WSW,252,11.0,11.0,41,0.00,,---,1.85,VWS V14.01,2013-03-25 02:47:00,
2013-03-24 21:49:00,40.6,18.8,28.05,ENE,57,3.1,3.1,41,0.00,,---,1.85,VWS V14.01,2013-03-25 02:49:00,
2013-03-24 21:50:00,40.6,18.8,28.05,NE,50,2.7,2.7,41,0.00,,---,1.85,VWS V14.01,2013-03-25 02:50:00,
2013-03-24 21:52:00,40.6,18.8,28.05,NNE,21,3.1,3.1,41,0.00,,---,1.85,VWS V14.01,2013-03-25 02:52:00,
2013-03-24 21:54:00,40.6,18.8,28.05,NW,308,2.7,5.4,41,0.00,,---,1.85,VWS V14.01,2013-03-25 02:54:00,
2013-03-24 21:55:00,40.6,18.8,28.05,NW,308,2.7,2.7,41,0.00,,---,1.85,VWS V14.01,2013-03-25 02:55:00,
2013-03-24 21:56:00,40.6,18.8,28.05,NW,308,2.7,2.7,41,0.00,,---,1.85,VWS V14.01,2013-03-25 02:56:00,
2013-03-24 21:58:00,40.6,18.8,28.05,South,185,3.1,5.8,41,0.00,,---,1.85,VWS V14.01,2013-03-25 02:58:00,
2013-03-24 21:59:00,40.6,18.2,28.05,West,263,4.0,4.0,40,0.00,,---,1.85,VWS V14.01,2013-03-25 02:59:00,
2013-03-24 22:00:00,40.6,18.2,28.05,West,261,2.2,2.2,40,0.00,,---,1.85,VWS V14.01,2013-03-25 03:00:00,
2013-03-24 22:01:00,40.6,18.8,28.05,West,261,2.2,2.2,41,0.00,,---,1.85,VWS V14.01,2013-03-25 03:01:00,
2013-03-24 22:03:00,40.5,18.6,28.05,West,265,3.1,3.1,41,0.00,,---,1.85,VWS V14.01,2013-03-25 03:03:00,
2013-03-24 22:05:00,40.5,18.6,28.05,North,8,2.7,8.1,41,0.00,,---,1.85,VWS V14.01,2013-03-25 03:05:00,
2013-03-24 22:06:00,40.5,18.6,28.05,WNW,302,3.6,3.6,41,0.00,,---,1.85,VWS V14.01,2013-03-25 03:06:00,
2013-03-24 22:08:00,40.5,19.2,28.05,East,92,2.2,2.2,42,0.00,,---,1.85,VWS V14.01,2013-03-25 03:08:00,
2013-03-24 22:10:00,40.5,19.2,28.05,South,190,0.0,0.0,42,0.00,,---,1.85,VWS V14.01,2013-03-25 03:10:00,
2013-03-24 22:12:00,40.5,19.2,28.05,WSW,257,4.0,4.0,42,0.00,,---,1.85,VWS V14.01,2013-03-25 03:12:00,
2013-03-24 22:13:00,40.5,19.2,28.05,WSW,241,10.5,10.5,42,0.00,,---,1.85,VWS V14.01,2013-03-25 03:13:00,
2013-03-24 22:15:00,40.5,19.2,28.05,SE,142,0.0,5.8,42,0.00,,---,1.85,VWS V14.01,2013-03-25 03:15:00,
2013-03-24 22:17:00,40.5,19.2,28.05,NE,40,3.6,5.8,42,0.00,,---,1.85,VWS V14.01,2013-03-25 03:17:00,
2013-03-24 22:18:00,40.3,18.5,28.05,SSE,158,3.6,3.6,41,0.00,,---,1.85,VWS V14.01,2013-03-25 03:18:00,
2013-03-24 22:20:00,40.3,18.5,28.05,WNW,293,10.5,10.5,41,0.00,,---,1.85,VWS V14.01,2013-03-25 03:20:00,
2013-03-24 22:21:00,40.3,17.9,28.05,North,3,5.8,5.8,40,0.00,,---,1.85,VWS V14.01,2013-03-25 03:21:00,
2013-03-24 22:22:00,40.5,18.1,28.05,WSW,258,6.3,6.3,40,0.00,,---,1.85,VWS V14.01,2013-03-25 03:22:00,
2013-03-24 22:23:00,40.5,18.1,28.05,NNE,31,3.6,3.6,40,0.00,,---,1.85,VWS V14.01,2013-03-25 03:23:00,
2013-03-24 22:25:00,40.3,18.5,28.08,ENE,63,3.1,3.6,41,0.00,,---,1.85,VWS V14.01,2013-03-25 03:25:00,
2013-03-24 22:26:00,40.3,18.5,28.08,North,3,3.6,3.6,41,0.00,,---,1.85,VWS V14.01,2013-03-25 03:26:00,
2013-03-24 22:27:00,40.3,17.9,28.08,South,189,3.6,5.4,40,0.00,,---,1.85,VWS V14.01,2013-03-25 03:27:00,
2013-03-24 22:28:00,40.3,17.9,28.08,NW,313,5.4,5.4,40,0.00,,---,1.85,VWS V14.01,2013-03-25 03:28:00,
2013-03-24 22:30:00,40.3,17.9,28.08,South,171,5.8,5.8,40,0.00,,---,1.85,VWS V14.01,2013-03-25 03:30:00,
2013-03-24 22:31:00,40.3,17.9,28.08,NE,43,3.1,3.1,40,0.00,,---,1.85,VWS V14.01,2013-03-25 03:31:00,
2013-03-24 22:32:00,40.3,17.9,28.08,NE,43,3.1,3.1,40,0.00,,---,1.85,VWS V14.01,2013-03-25 03:32:00,
2013-03-24 22:33:00,40.3,17.9,28.08,SW,235,7.6,7.6,40,0.00,,---,1.85,VWS V14.01,2013-03-25 03:33:00,
2013-03-24 22:35:00,40.3,17.9,28.08,West,268,7.6,7.6,40,0.00,,---,1.85,VWS V14.01,2013-03-25 03:35:00,
2013-03-24 22:36:00,40.3,17.9,28.08,NNW,338,2.7,5.4,40,0.00,,---,1.85,VWS V14.01,2013-03-25 03:36:00,
2013-03-24 22:37:00,40.3,17.9,28.08,East,81,0.0,0.0,40,0.00,,---,1.85,VWS V14.01,2013-03-25 03:37:00,
2013-03-24 22:38:00,40.3,17.9,28.08,SSW,201,2.7,2.7,40,0.00,,---,1.85,VWS V14.01,2013-03-25 03:38:00,
2013-03-24 22:40:00,40.1,17.7,28.08,North,353,5.4,5.4,40,0.00,,---,1.85,VWS V14.01,2013-03-25 03:40:00,
2013-03-24 22:41:00,40.1,18.3,28.08,SW,235,4.9,4.9,41,0.00,,---,1.85,VWS V14.01,2013-03-25 03:41:00,
2013-03-24 22:42:00,40.1,18.3,28.08,WNW,287,4.0,4.0,41,0.00,,---,1.85,VWS V14.01,2013-03-25 03:42:00,
2013-03-24 22:43:00,40.1,18.3,28.08,WNW,287,0.0,0.0,41,0.00,,---,1.85,VWS V14.01,2013-03-25 03:43:00,
2013-03-24 22:45:00,39.9,18.1,28.08,North,350,6.3,6.3,41,0.00,,---,1.85,VWS V14.01,2013-03-25 03:45:00,
2013-03-24 22:46:00,39.9,17.6,28.08,ENE,59,4.0,7.6,40,0.00,,---,1.85,VWS V14.01,2013-03-25 03:46:00,
2013-03-24 22:47:00,39.9,17.6,28.08,ENE,59,4.0,4.0,40,0.00,,---,1.85,VWS V14.01,2013-03-25 03:47:00,
2013-03-24 22:49:00,39.9,17.6,28.08,WSW,244,5.8,6.3,40,0.00,,---,1.85,VWS V14.01,2013-03-25 03:49:00,
2013-03-24 22:50:00,39.9,17.6,28.08,SSW,204,6.3,6.3,40,0.00,,---,1.85,VWS V14.01,2013-03-25 03:50:00,
2013-03-24 22:52:00,39.9,17.6,28.08,ESE,117,3.1,3.1,40,0.00,,---,1.85,VWS V14.01,2013-03-25 03:52:00,
2013-03-24 22:54:00,39.9,17.6,28.08,ENE,74,10.1,10.1,40,0.00,,---,1.85,VWS V14.01,2013-03-25 03:54:00,
2013-03-24 22:55:00,39.9,17.6,28.08,WSW,255,6.3,6.3,40,0.00,,---,1.85,VWS V14.01,2013-03-25 03:55:00,
2013-03-24 22:57:00,39.9,17.0,28.08,WSW,252,4.9,4.9,39,0.00,,---,1.85,VWS V14.01,2013-03-25 03:57:00,
2013-03-24 22:58:00,39.9,17.0,28.08,SSW,207,2.2,4.9,39,0.00,,---,1.85,VWS V14.01,2013-03-25 03:58:00,
2013-03-24 22:59:00,39.9,17.0,28.08,East,79,5.4,5.4,39,0.00,,---,1.85,VWS V14.01,2013-03-25 03:59:00,
2013-03-24 23:00:00,39.7,16.8,28.08,East,79,5.4,5.4,39,0.00,,---,1.85,VWS V14.01,2013-03-25 04:00:00,
2013-03-24 23:05:00,39.7,16.8,28.08,WNW,289,3.1,3.1,39,0.00,,---,0.00,VWS V14.01,2013-03-25 04:05:00,
2013-03-24 23:10:00,39.4,17.1,28.08,SSE,152,3.6,3.6,40,0.00,,---,0.00,VWS V14.01,2013-03-25 04:10:00,
2013-03-24 23:15:00,39.4,17.1,28.08,North,9,2.7,2.7,40,0.00,,---,0.00,VWS V14.01,2013-03-25 04:15:00,
2013-03-24 23:20:00,39.4,17.1,28.08,NW,306,3.1,3.1,40,0.00,,---,0.00,VWS V14.01,2013-03-25 04:20:00,
2013-03-24 23:25:00,39.2,16.3,28.08,SW,224,5.4,5.4,39,0.00,,---,0.00,VWS V14.01,2013-03-25 04:25:00,
2013-03-24 23:30:00,39.0,16.2,28.08,East,92,5.8,5.8,39,0.00,,---,0.00,VWS V14.01,2013-03-25 04:30:00,
2013-03-24 23:35:00,39.0,16.2,28.08,ENE,64,5.4,5.4,39,0.00,,---,0.00,VWS V14.01,2013-03-25 04:35:00,
2013-03-24 23:40:00,38.8,15.4,28.08,NNE,30,2.7,4.5,38,0.00,,---,0.00,VWS V14.01,2013-03-25 04:40:00,
2013-03-24 23:45:00,38.8,16.0,28.11,ENE,66,4.9,5.4,39,0.00,,---,0.00,VWS V14.01,2013-03-25 04:45:00,
2013-03-24 23:46:00,38.8,16.0,28.11,East,91,4.5,5.4,39,0.00,,---,0.00,VWS V14.01,2013-03-25 04:46:00,
2013-03-24 23:50:00,38.5,15.1,28.11,WNW,287,2.7,2.7,38,0.00,,---,0.00,VWS V14.01,2013-03-25 04:50:00,
2013-03-24 23:51:00,38.5,15.1,28.11,WNW,287,2.7,2.7,38,0.00,,---,0.00,VWS V14.01,2013-03-25 04:51:00,
2013-03-24 23:56:00,38.5,13.2,28.11,SE,134,4.9,6.3,35,0.00,,---,0.00,VWS V14.01,2013-03-25 04:56:00,